Time,TemperatureF,DewpointF,PressureIn,WindDirection,WindDirectionDegrees,WindSpeedMPH,WindSpeedGustMPH,Humidity,HourlyPrecipIn,Conditions,Clouds,dailyrainin,SoftwareType,DateUTC
2013-07-23 00:00:00,77.2,69.8,29.87,SSE,158,0.0,0.5,78,0.00,RA,,0.00,WeatherDisplay:10.37,2013-07-23 04:00:00,
2013-07-23 00:01:00,77.0,69.6,29.87,WSW,248,0.0,0.3,78,0.00,RA,,0.00,WeatherDisplay:10.37,2013-07-23 04:01:00,
2013-07-23 00:02:00,77.0,69.6,29.87,WSW,248,1.2,1.2,78,0.00,RA,,0.00,WeatherDisplay:10.37,2013-07-23 04:02:00,
2013-07-23 00:06:00,77.0,69.6,29.87,WNW,292,2.3,2.3,78,0.00,RA,,0.00,WeatherDisplay:10.37,2013-07-23 04:06:00,
2013-07-23 00:07:00,77.0,69.6,29.87,West,270,2.3,2.3,78,0.00,RA,,0.00,WeatherDisplay:10.37,2013-07-23 04:07:00,
2013-07-23 00:11:00,77.0,69.6,29.87,ESE,112,1.2,1.2,78,0.00,CLR,,0.00,WeatherDisplay:10.37,2013-07-23 04:11:00,
2013-07-23 00:12:00,76.8,69.8,29.87,ESE,112,1.6,1.6,79,0.00,CLR,,0.00,WeatherDisplay:10.37,2013-07-23 04:12:00,
2013-07-23 00:16:00,77.0,69.6,29.87,SSW,202,1.5,1.5,78,0.00,CLR,,0.00,WeatherDisplay:10.37,2013-07-23 04:16:00,
2013-07-23 00:17:00,77.0,69.6,29.87,SSE,158,1.2,1.2,78,0.00,CLR,,0.00,WeatherDisplay:10.37,2013-07-23 04:17:00,
2013-07-23 00:21:00,77.0,69.6,29.87,West,270,2.3,2.3,78,0.00,CLR,,0.00,WeatherDisplay:10.37,2013-07-23 04:21:00,
2013-07-23 00:22:00,77.0,69.6,29.87,West,270,2.3,2.3,78,0.00,CLR,,0.00,WeatherDisplay:10.37,2013-07-23 04:22:00,
2013-07-23 00:26:00,76.8,69.8,29.87,West,270,1.2,1.2,79,0.00,CLR,,0.00,WeatherDisplay:10.37,2013-07-23 04:26:00,
2013-07-23 00:27:00,76.8,69.8,29.87,West,270,1.2,1.2,79,0.00,CLR,,0.00,WeatherDisplay:10.37,2013-07-23 04:27:00,
2013-07-23 00:31:00,76.8,69.8,29.87,WNW,292,3.5,3.5,79,0.00,CLR,,0.00,WeatherDisplay:10.37,2013-07-23 04:31:00,
2013-07-23 00:32:00,76.8,69.8,29.87,WNW,292,1.4,1.4,79,0.00,CLR,,0.00,WeatherDisplay:10.37,2013-07-23 04:32:00,
2013-07-23 00:36:00,76.6,69.6,29.87,West,270,1.2,1.2,79,0.00,CLR,,0.00,WeatherDisplay:10.37,2013-07-23 04:36:00,
2013-07-23 00:37:00,76.6,69.6,29.87,West,270,1.2,1.2,79,0.00,CLR,,0.00,WeatherDisplay:10.37,2013-07-23 04:37:00,
2013-07-23 00:41:00,76.5,69.5,29.86,North,0,1.2,1.2,79,0.00,CLR,,0.00,WeatherDisplay:10.37,2013-07-23 04:41:00,
2013-07-23 00:42:00,76.5,69.5,29.86,North,0,0.0,0.6,79,0.00,CLR,,0.00,WeatherDisplay:10.37,2013-07-23 04:42:00,
2013-07-23 00:47:00,76.3,69.3,29.86,WNW,292,2.3,2.3,79,0.00,CLR,,0.00,WeatherDisplay:10.37,2013-07-23 04:47:00,
2013-07-23 00:48:00,76.3,69.3,29.86,WNW,292,2.6,2.6,79,0.00,CLR,,0.00,WeatherDisplay:10.37,2013-07-23 04:48:00,
2013-07-23 00:52:00,76.3,69.3,29.86,East,90,2.3,2.3,79,0.00,CLR,,0.00,WeatherDisplay:10.37,2013-07-23 04:52:00,
2013-07-23 00:53:00,76.3,69.3,29.86,WSW,248,2.3,2.3,79,0.00,CLR,,0.00,WeatherDisplay:10.37,2013-07-23 04:53:00,
2013-07-23 00:54:00,76.3,69.3,29.86,WSW,248,2.3,2.3,79,0.00,CLR,,0.00,WeatherDisplay:10.37,2013-07-23 04:54:00,
2013-07-23 00:57:00,76.3,69.3,29.86,WSW,248,3.5,3.5,79,0.00,CLR,,0.00,WeatherDisplay:10.37,2013-07-23 04:57:00,
2013-07-23 00:58:00,76.3,69.3,29.86,WSW,248,0.0,0.7,79,0.00,CLR,,0.00,WeatherDisplay:10.37,2013-07-23 04:58:00,
2013-07-23 00:59:00,76.3,69.3,29.86,South,180,0.0,0.6,79,0.00,CLR,,0.00,WeatherDisplay:10.37,2013-07-23 04:59:00,
2013-07-23 01:02:00,76.1,69.1,29.86,NW,315,1.2,1.2,79,0.00,CLR,,0.00,WeatherDisplay:10.37,2013-07-23 05:02:00,
2013-07-23 01:03:00,76.1,69.1,29.86,NW,315,1.2,1.2,79,0.00,CLR,,0.00,WeatherDisplay:10.37,2013-07-23 05:03:00,
2013-07-23 01:04:00,76.1,69.1,29.86,NW,315,1.2,1.2,79,0.00,CLR,,0.00,WeatherDisplay:10.37,2013-07-23 05:04:00,
2013-07-23 01:07:00,76.1,69.1,29.86,West,270,0.0,0.3,79,0.00,CLR,,0.00,WeatherDisplay:10.37,2013-07-23 05:07:00,
2013-07-23 01:08:00,76.1,69.1,29.86,West,270,0.0,0.3,79,0.00,CLR,,0.00,WeatherDisplay:10.37,2013-07-23 05:08:00,
2013-07-23 01:09:00,76.1,69.1,29.86,SW,225,0.0,0.3,79,0.00,CLR,,0.00,WeatherDisplay:10.37,2013-07-23 05:09:00,
2013-07-23 01:12:00,75.9,68.9,29.86,North,0,1.2,1.2,79,0.00,CLR,,0.00,WeatherDisplay:10.37,2013-07-23 05:12:00,
2013-07-23 01:13:00,75.9,68.9,29.86,North,0,1.2,1.2,79,0.00,CLR,,0.00,WeatherDisplay:10.37,2013-07-23 05:13:00,
2013-07-23 01:14:00,75.9,68.9,29.86,North,0,1.2,1.2,79,0.00,CLR,,0.00,WeatherDisplay:10.37,2013-07-23 05:14:00,
2013-07-23 01:17:00,75.7,68.8,29.86,SE,135,2.3,2.3,79,0.00,CLR,,0.00,WeatherDisplay:10.37,2013-07-23 05:17:00,
2013-07-23 01:18:00,75.7,68.8,29.86,SE,135,2.3,2.3,79,0.00,CLR,,0.00,WeatherDisplay:10.37,2013-07-23 05:18:00,
2013-07-23 01:19:00,75.7,68.8,29.86,SSE,158,2.3,2.3,79,0.00,CLR,,0.00,WeatherDisplay:10.37,2013-07-23 05:19:00,
2013-07-23 01:20:00,75.7,68.8,29.86,SSE,158,1.3,1.3,79,0.00,CLR,,0.00,WeatherDisplay:10.37,2013-07-23 05:20:00,
2013-07-23 01:22:00,75.7,68.8,29.86,ESE,112,2.3,2.3,79,0.00,CLR,,0.00,WeatherDisplay:10.37,2013-07-23 05:22:00,
2013-07-23 01:23:00,75.7,68.8,29.86,ESE,112,2.3,2.3,79,0.00,CLR,,0.00,WeatherDisplay:10.37,2013-07-23 05:23:00,
2013-07-23 01:24:00,75.6,68.6,29.86,ESE,112,1.3,1.3,79,0.00,CLR,,0.00,WeatherDisplay:10.37,2013-07-23 05:24:00,
2013-07-23 01:25:00,75.6,68.6,29.86,SW,225,1.4,1.4,79,0.00,CLR,,0.00,WeatherDisplay:10.37,2013-07-23 05:25:00,
2013-07-23 01:27:00,75.7,68.8,29.86,NNE,22,3.5,3.5,79,0.00,CLR,,0.00,WeatherDisplay:10.37,2013-07-23 05:27:00,
2013-07-23 01:28:00,75.7,68.8,29.86,WSW,248,3.5,3.5,79,0.00,CLR,,0.00,WeatherDisplay:10.37,2013-07-23 05:28:00,
2013-07-23 01:29:00,75.7,68.8,29.86,WSW,248,3.5,3.5,79,0.00,CLR,,0.00,WeatherDisplay:10.37,2013-07-23 05:29:00,
2013-07-23 01:30:00,75.6,68.6,29.86,WSW,248,2.3,2.3,79,0.00,CLR,,0.00,WeatherDisplay:10.37,2013-07-23 05:30:00,
2013-07-23 01:33:00,75.7,68.8,29.86,West,270,2.3,2.3,79,0.00,CLR,,0.00,WeatherDisplay:10.37,2013-07-23 05:33:00,
2013-07-23 01:34:00,75.7,68.8,29.86,West,270,2.3,2.3,79,0.00,CLR,,0.00,WeatherDisplay:10.37,2013-07-23 05:34:00,
2013-07-23 01:35:00,75.6,68.6,29.86,ENE,68,2.3,2.3,79,0.00,CLR,,0.00,WeatherDisplay:10.37,2013-07-23 05:35:00,
2013-07-23 01:36:00,75.6,68.6,29.86,South,180,1.2,1.2,79,0.00,CLR,,0.00,WeatherDisplay:10.37,2013-07-23 05:36:00,
2013-07-23 01:38:00,75.2,68.2,29.86,South,180,2.3,2.3,79,0.00,CLR,,0.00,WeatherDisplay:10.37,2013-07-23 05:38:00,
2013-07-23 01:39:00,75.2,68.2,29.86,ESE,112,2.3,2.3,79,0.00,CLR,,0.00,WeatherDisplay:10.37,2013-07-23 05:39:00,
2013-07-23 01:40:00,75.2,68.2,29.86,ESE,112,2.3,2.3,79,0.00,CLR,,0.00,WeatherDisplay:10.37,2013-07-23 05:40:00,
2013-07-23 01:42:00,75.2,68.2,29.85,West,270,2.3,2.3,79,0.00,CLR,,0.00,WeatherDisplay:10.37,2013-07-23 05:42:00,
2013-07-23 01:43:00,75.2,68.2,29.85,SW,225,2.3,2.3,79,0.00,CLR,,0.00,WeatherDisplay:10.37,2013-07-23 05:43:00,
2013-07-23 01:44:00,75.2,68.2,29.85,SW,225,2.3,2.3,79,0.00,CLR,,0.00,WeatherDisplay:10.37,2013-07-23 05:44:00,
2013-07-23 01:45:00,75.2,68.2,29.85,ENE,68,2.3,2.3,79,0.00,CLR,,0.00,WeatherDisplay:10.37,2013-07-23 05:45:00,
2013-07-23 01:46:00,75.2,68.2,29.85,ENE,68,1.2,1.2,79,0.00,CLR,,0.00,WeatherDisplay:10.37,2013-07-23 05:46:00,
2013-07-23 01:47:00,75.4,68.4,29.85,South,180,1.2,1.2,79,0.00,CLR,,0.00,WeatherDisplay:10.37,2013-07-23 05:47:00,
2013-07-23 01:49:00,75.4,68.8,29.85,West,270,1.2,1.2,80,0.00,CLR,,0.00,WeatherDisplay:10.37,2013-07-23 05:49:00,
2013-07-23 01:50:00,75.4,68.8,29.85,West,270,1.2,1.2,80,0.00,CLR,,0.00,WeatherDisplay:10.37,2013-07-23 05:50:00,
2013-07-23 01:51:00,75.4,68.8,29.85,WSW,248,1.3,1.3,80,0.00,CLR,,0.00,WeatherDisplay:10.37,2013-07-23 05:51:00,
2013-07-23 01:52:00,75.4,68.8,29.85,NW,315,1.2,1.2,80,0.00,CLR,,0.00,WeatherDisplay:10.37,2013-07-23 05:52:00,
2013-07-23 01:54:00,75.4,68.8,29.85,NW,315,0.0,0.5,80,0.00,CLR,,0.00,WeatherDisplay:10.37,2013-07-23 05:54:00,
2013-07-23 01:55:00,75.4,68.8,29.85,West,270,1.2,1.2,80,0.00,CLR,,0.00,WeatherDisplay:10.37,2013-07-23 05:55:00,
2013-07-23 01:56:00,75.4,68.8,29.85,West,270,1.2,1.2,80,0.00,CLR,,0.00,WeatherDisplay:10.37,2013-07-23 05:56:00,
2013-07-23 01:58:00,75.2,68.6,29.85,NE,45,1.2,1.2,80,0.00,CLR,,0.00,WeatherDisplay:10.37,2013-07-23 05:58:00,
2013-07-23 01:59:00,75.2,68.6,29.85,East,90,0.0,0.3,80,0.00,CLR,,0.00,WeatherDisplay:10.37,2013-07-23 05:59:00,
2013-07-23 02:00:00,75.2,68.6,29.86,South,180,1.0,1.0,80,0.00,CLR,,0.00,WeatherDisplay:10.37,2013-07-23 06:00:00,
2013-07-23 02:01:00,75.2,68.6,29.86,South,180,1.2,1.2,80,0.00,CLR,,0.00,WeatherDisplay:10.37,2013-07-23 06:01:00,
2013-07-23 02:03:00,75.2,68.6,29.86,West,270,1.4,1.4,80,0.00,CLR,,0.00,WeatherDisplay:10.37,2013-07-23 06:03:00,
2013-07-23 02:04:00,75.2,68.6,29.86,West,270,1.2,1.2,80,0.00,CLR,,0.00,WeatherDisplay:10.37,2013-07-23 06:04:00,
2013-07-23 02:06:00,75.2,68.6,29.86,West,270,1.2,1.2,80,0.00,CLR,,0.00,WeatherDisplay:10.37,2013-07-23 06:06:00,
2013-07-23 02:08:00,75.2,68.6,29.86,WSW,248,1.3,1.3,80,0.00,CLR,,0.00,WeatherDisplay:10.37,2013-07-23 06:08:00,
2013-07-23 02:09:00,75.2,68.6,29.86,North,0,1.2,1.2,80,0.00,CLR,,0.00,WeatherDisplay:10.37,2013-07-23 06:09:00,
2013-07-23 02:11:00,75.0,68.4,29.86,WSW,248,1.2,1.2,80,0.00,CLR,,0.00,WeatherDisplay:10.37,2013-07-23 06:11:00,
2013-07-23 02:13:00,75.0,68.4,29.86,West,270,2.3,2.3,80,0.00,CLR,,0.00,WeatherDisplay:10.37,2013-07-23 06:13:00,
2013-07-23 02:14:00,75.2,68.6,29.86,WNW,292,2.3,2.3,80,0.00,CLR,,0.00,WeatherDisplay:10.37,2013-07-23 06:14:00,
2013-07-23 02:16:00,75.2,68.6,29.86,WNW,292,2.3,2.3,80,0.00,CLR,,0.00,WeatherDisplay:10.37,2013-07-23 06:16:00,
2013-07-23 02:17:00,75.2,68.6,29.86,WSW,248,2.3,2.3,80,0.00,CLR,,0.00,WeatherDisplay:10.37,2013-07-23 06:17:00,
2013-07-23 02:18:00,75.2,68.6,29.86,WSW,248,2.3,2.3,80,0.00,CLR,,0.00,WeatherDisplay:10.37,2013-07-23 06:18:00,
2013-07-23 02:20:00,75.2,68.6,29.86,NNE,22,0.0,0.7,80,0.00,CLR,,0.00,WeatherDisplay:10.37,2013-07-23 06:20:00,
2013-07-23 02:21:00,75.2,68.6,29.85,WSW,248,0.0,0.6,80,0.00,CLR,,0.00,WeatherDisplay:10.37,2013-07-23 06:21:00,
2013-07-23 02:22:00,75.0,68.4,29.85,WSW,248,0.0,0.6,80,0.00,CLR,,0.00,WeatherDisplay:10.37,2013-07-23 06:22:00,
2013-07-23 02:23:00,75.0,68.4,29.85,NNE,22,0.0,0.6,80,0.00,CLR,,0.00,WeatherDisplay:10.37,2013-07-23 06:23:00,
2013-07-23 02:25:00,75.0,68.4,29.85,ESE,112,0.0,0.6,80,0.00,CLR,,0.00,WeatherDisplay:10.37,2013-07-23 06:25:00,
2013-07-23 02:26:00,74.8,68.3,29.85,ESE,112,0.0,0.6,80,0.00,CLR,,0.00,WeatherDisplay:10.37,2013-07-23 06:26:00,
2013-07-23 02:27:00,74.8,68.3,29.85,NNE,22,1.5,1.5,80,0.00,CLR,,0.00,WeatherDisplay:10.37,2013-07-23 06:27:00,
2013-07-23 02:28:00,74.8,68.3,29.85,NNE,22,1.2,1.2,80,0.00,CLR,,0.00,WeatherDisplay:10.37,2013-07-23 06:28:00,
2013-07-23 02:31:00,74.8,68.3,29.85,South,180,2.3,2.3,80,0.00,CLR,,0.00,WeatherDisplay:10.37,2013-07-23 06:31:00,
2013-07-23 02:32:00,74.8,68.3,29.85,South,180,2.3,2.3,80,0.00,CLR,,0.00,WeatherDisplay:10.37,2013-07-23 06:32:00,
2013-07-23 02:33:00,74.7,68.1,29.85,WSW,248,1.2,1.2,80,0.00,CLR,,0.00,WeatherDisplay:10.37,2013-07-23 06:33:00,
2013-07-23 02:36:00,74.8,68.3,29.85,ESE,112,1.3,1.3,80,0.00,CLR,,0.00,WeatherDisplay:10.37,2013-07-23 06:36:00,
2013-07-23 02:38:00,74.8,68.3,29.85,South,180,1.2,1.2,80,0.00,CLR,,0.00,WeatherDisplay:10.37,2013-07-23 06:38:00,
2013-07-23 02:41:00,74.7,68.1,29.86,NNE,22,2.3,2.3,80,0.00,CLR,,0.00,WeatherDisplay:10.37,2013-07-23 06:41:00,
2013-07-23 02:43:00,74.7,68.1,29.86,ENE,68,2.3,2.3,80,0.00,CLR,,0.00,WeatherDisplay:10.37,2013-07-23 06:43:00,
2013-07-23 02:46:00,74.7,68.1,29.86,ESE,112,1.2,1.2,80,0.00,CLR,,0.00,WeatherDisplay:10.37,2013-07-23 06:46:00,
2013-07-23 02:48:00,74.7,68.4,29.86,ESE,112,1.6,1.6,81,0.00,CLR,,0.00,WeatherDisplay:10.37,2013-07-23 06:48:00,
2013-07-23 02:49:00,74.7,68.4,29.86,WNW,292,2.3,2.3,81,0.00,CLR,,0.00,WeatherDisplay:10.37,2013-07-23 06:49:00,
2013-07-23 02:51:00,74.7,68.4,29.86,WNW,292,2.4,2.4,81,0.00,CLR,,0.00,WeatherDisplay:10.37,2013-07-23 06:51:00,
2013-07-23 02:52:00,74.7,68.4,29.86,WNW,292,2.4,2.4,81,0.00,CLR,,0.00,WeatherDisplay:10.37,2013-07-23 06:52:00,
2013-07-23 02:53:00,74.7,68.4,29.86,SSW,202,2.3,2.3,81,0.00,CLR,,0.00,WeatherDisplay:10.37,2013-07-23 06:53:00,
2013-07-23 02:54:00,74.7,68.4,29.86,NW,315,2.3,2.3,81,0.00,CLR,,0.00,WeatherDisplay:10.37,2013-07-23 06:54:00,
2013-07-23 02:56:00,74.7,68.4,29.86,West,270,1.2,1.3,81,0.00,CLR,,0.00,WeatherDisplay:10.37,2013-07-23 06:56:00,
2013-07-23 02:57:00,74.7,68.4,29.86,West,270,1.2,1.3,81,0.00,CLR,,0.00,WeatherDisplay:10.37,2013-07-23 06:57:00,
2013-07-23 02:58:00,74.7,68.4,29.86,West,270,1.2,1.3,81,0.00,CLR,,0.00,WeatherDisplay:10.37,2013-07-23 06:58:00,
2013-07-23 03:00:00,74.5,68.3,29.86,NNE,22,3.5,3.5,81,0.00,CLR,,0.00,WeatherDisplay:10.37,2013-07-23 07:00:00,
2013-07-23 03:02:00,74.5,68.3,29.86,ENE,68,3.5,3.5,81,0.00,CLR,,0.00,WeatherDisplay:10.37,2013-07-23 07:02:00,
2013-07-23 03:04:00,74.3,68.1,29.86,West,270,2.3,2.3,81,0.00,CLR,,0.00,WeatherDisplay:10.37,2013-07-23 07:04:00,
2013-07-23 03:05:00,74.3,68.1,29.86,WSW,248,2.3,2.3,81,0.00,CLR,,0.00,WeatherDisplay:10.37,2013-07-23 07:05:00,
2013-07-23 03:07:00,74.5,68.3,29.86,West,270,1.2,1.2,81,0.00,CLR,,0.00,WeatherDisplay:10.37,2013-07-23 07:07:00,
2013-07-23 03:09:00,74.5,68.3,29.86,East,90,1.2,1.2,81,0.00,CLR,,0.00,WeatherDisplay:10.37,2013-07-23 07:09:00,
2013-07-23 03:10:00,74.5,68.3,29.86,East,90,1.2,1.2,81,0.00,CLR,,0.00,WeatherDisplay:10.37,2013-07-23 07:10:00,
2013-07-23 03:12:00,74.5,68.3,29.86,SW,225,2.3,2.3,81,0.00,CLR,,0.00,WeatherDisplay:10.37,2013-07-23 07:12:00,
2013-07-23 03:13:00,74.5,68.3,29.86,WSW,248,2.3,2.3,81,0.00,CLR,,0.00,WeatherDisplay:10.37,2013-07-23 07:13:00,
2013-07-23 03:14:00,74.5,68.3,29.86,WSW,248,1.5,1.5,81,0.00,CLR,,0.00,WeatherDisplay:10.37,2013-07-23 07:14:00,
2013-07-23 03:15:00,74.5,68.3,29.86,SSW,202,1.2,1.2,81,0.00,CLR,,0.00,WeatherDisplay:10.37,2013-07-23 07:15:00,
2013-07-23 03:17:00,74.5,68.3,29.86,WNW,292,1.2,1.2,81,0.00,CLR,,0.00,WeatherDisplay:10.37,2013-07-23 07:17:00,
2013-07-23 03:18:00,74.5,68.3,29.86,WNW,292,0.0,0.8,81,0.00,CLR,,0.00,WeatherDisplay:10.37,2013-07-23 07:18:00,
2013-07-23 03:19:00,74.5,68.3,29.86,ENE,68,2.4,2.4,81,0.00,CLR,,0.00,WeatherDisplay:10.37,2013-07-23 07:19:00,
2013-07-23 03:20:00,74.3,68.1,29.86,ENE,68,2.3,2.3,81,0.00,CLR,,0.00,WeatherDisplay:10.37,2013-07-23 07:20:00,
2013-07-23 03:22:00,74.5,68.3,29.86,ENE,68,2.3,2.3,81,0.00,CLR,,0.00,WeatherDisplay:10.37,2013-07-23 07:22:00,
2013-07-23 03:23:00,74.5,68.3,29.86,ENE,68,2.3,2.3,81,0.00,CLR,,0.00,WeatherDisplay:10.37,2013-07-23 07:23:00,
2013-07-23 03:24:00,74.5,68.3,29.86,ENE,68,1.2,1.2,81,0.00,CLR,,0.00,WeatherDisplay:10.37,2013-07-23 07:24:00,
2013-07-23 03:25:00,74.5,68.3,29.86,East,90,1.2,1.2,81,0.00,CLR,,0.00,WeatherDisplay:10.37,2013-07-23 07:25:00,
2013-07-23 03:26:00,74.5,68.3,29.86,East,90,1.2,1.2,81,0.00,CLR,,0.00,WeatherDisplay:10.37,2013-07-23 07:26:00,
2013-07-23 03:27:00,74.3,68.1,29.86,NW,315,2.6,2.6,81,0.00,CLR,,0.00,WeatherDisplay:10.37,2013-07-23 07:27:00,
2013-07-23 03:28:00,74.3,68.1,29.86,NE,45,2.3,2.3,81,0.00,CLR,,0.00,WeatherDisplay:10.37,2013-07-23 07:28:00,
2013-07-23 03:29:00,74.3,68.1,29.86,NE,45,2.3,2.3,81,0.00,CLR,,0.00,WeatherDisplay:10.37,2013-07-23 07:29:00,
2013-07-23 03:30:00,74.3,68.1,29.86,NE,45,2.3,2.3,81,0.00,CLR,,0.00,WeatherDisplay:10.37,2013-07-23 07:30:00,
2013-07-23 03:31:00,74.3,68.1,29.86,NNE,22,2.3,2.3,81,0.00,CLR,,0.00,WeatherDisplay:10.37,2013-07-23 07:31:00,
2013-07-23 03:33:00,74.1,67.9,29.86,WSW,248,2.3,2.3,81,0.00,CLR,,0.00,WeatherDisplay:10.37,2013-07-23 07:33:00,
2013-07-23 03:34:00,74.1,67.9,29.86,WSW,248,1.2,1.2,81,0.00,CLR,,0.00,WeatherDisplay:10.37,2013-07-23 07:34:00,
2013-07-23 03:35:00,74.1,67.9,29.86,WSW,248,2.3,2.3,81,0.00,CLR,,0.00,WeatherDisplay:10.37,2013-07-23 07:35:00,
2013-07-23 03:36:00,74.1,67.9,29.86,WSW,248,2.3,2.3,81,0.00,CLR,,0.00,WeatherDisplay:10.37,2013-07-23 07:36:00,
2013-07-23 03:38:00,74.1,67.9,29.86,SW,225,2.3,2.3,81,0.00,CLR,,0.00,WeatherDisplay:10.37,2013-07-23 07:38:00,
2013-07-23 03:39:00,74.1,67.9,29.86,SW,225,3.5,3.5,81,0.00,CLR,,0.00,WeatherDisplay:10.37,2013-07-23 07:39:00,
2013-07-23 03:40:00,74.1,67.9,29.86,ENE,68,3.5,3.5,81,0.00,CLR,,0.00,WeatherDisplay:10.37,2013-07-23 07:40:00,
2013-07-23 03:42:00,74.1,67.9,29.86,ENE,68,3.5,3.5,81,0.00,CLR,,0.00,WeatherDisplay:10.37,2013-07-23 07:42:00,
2013-07-23 03:44:00,74.1,67.9,29.86,ESE,112,1.5,1.5,81,0.00,CLR,,0.00,WeatherDisplay:10.37,2013-07-23 07:44:00,
2013-07-23 03:46:00,74.1,67.9,29.86,West,270,0.0,1.2,81,0.00,CLR,,0.00,WeatherDisplay:10.37,2013-07-23 07:46:00,
2013-07-23 03:47:00,74.1,67.9,29.86,WNW,292,2.3,2.3,81,0.00,CLR,,0.00,WeatherDisplay:10.37,2013-07-23 07:47:00,
2013-07-23 03:49:00,74.1,67.9,29.86,ESE,112,2.3,2.3,81,0.00,CLR,,0.00,WeatherDisplay:10.37,2013-07-23 07:49:00,
2013-07-23 03:50:00,74.1,67.9,29.86,ESE,112,2.3,2.3,81,0.00,CLR,,0.00,WeatherDisplay:10.37,2013-07-23 07:50:00,
2013-07-23 03:51:00,74.1,67.9,29.86,West,270,2.3,2.3,81,0.00,CLR,,0.00,WeatherDisplay:10.37,2013-07-23 07:51:00,
2013-07-23 03:52:00,74.1,67.9,29.86,West,270,1.2,1.2,81,0.00,CLR,,0.00,WeatherDisplay:10.37,2013-07-23 07:52:00,
2013-07-23 03:54:00,74.1,67.9,29.86,WSW,248,1.2,1.2,81,0.00,CLR,,0.00,WeatherDisplay:10.37,2013-07-23 07:54:00,
2013-07-23 03:55:00,74.1,67.9,29.86,NW,315,2.3,2.3,81,0.00,CLR,,0.00,WeatherDisplay:10.37,2013-07-23 07:55:00,
2013-07-23 03:57:00,74.1,67.9,29.86,East,90,2.3,2.3,81,0.00,CLR,,0.00,WeatherDisplay:10.37,2013-07-23 07:57:00,
2013-07-23 03:59:00,74.1,67.9,29.86,South,180,1.2,1.2,81,0.00,CLR,,0.00,WeatherDisplay:10.37,2013-07-23 07:59:00,
2013-07-23 04:00:00,74.1,67.9,29.86,South,180,1.2,1.2,81,0.00,CLR,,0.00,WeatherDisplay:10.37,2013-07-23 08:00:00,
2013-07-23 04:02:00,74.1,67.9,29.87,WNW,292,2.3,2.3,81,0.00,CLR,,0.00,WeatherDisplay:10.37,2013-07-23 08:02:00,
2013-07-23 04:04:00,73.9,67.7,29.87,WNW,292,2.3,2.3,81,0.00,CLR,,0.00,WeatherDisplay:10.37,2013-07-23 08:04:00,
2013-07-23 04:05:00,73.9,67.7,29.87,SSE,158,2.3,2.3,81,0.00,CLR,,0.00,WeatherDisplay:10.37,2013-07-23 08:05:00,
2013-07-23 04:07:00,73.9,67.7,29.87,West,270,1.6,1.6,81,0.00,CLR,,0.00,WeatherDisplay:10.37,2013-07-23 08:07:00,
2013-07-23 04:09:00,73.9,67.7,29.87,SW,225,1.2,1.2,81,0.00,CLR,,0.00,WeatherDisplay:10.37,2013-07-23 08:09:00,
2013-07-23 04:10:00,73.9,67.7,29.87,SW,225,1.6,1.6,81,0.00,CLR,,0.00,WeatherDisplay:10.37,2013-07-23 08:10:00,
2013-07-23 04:11:00,73.9,67.7,29.87,SE,135,2.4,2.4,81,0.00,CLR,,0.00,WeatherDisplay:10.37,2013-07-23 08:11:00,
2013-07-23 04:13:00,73.9,67.7,29.87,WNW,292,2.3,2.3,81,0.00,CLR,,0.00,WeatherDisplay:10.37,2013-07-23 08:13:00,
2013-07-23 04:15:00,73.9,67.7,29.87,West,270,1.4,1.4,81,0.00,CLR,,0.00,WeatherDisplay:10.37,2013-07-23 08:15:00,
2013-07-23 04:17:00,73.9,67.7,29.87,WNW,292,1.3,1.3,81,0.00,CLR,,0.00,WeatherDisplay:10.37,2013-07-23 08:17:00,
2013-07-23 04:18:00,73.9,67.7,29.87,WNW,292,1.2,1.2,81,0.00,CLR,,0.00,WeatherDisplay:10.37,2013-07-23 08:18:00,
2013-07-23 04:20:00,73.8,67.6,29.87,ESE,112,2.3,2.3,81,0.00,CLR,,0.00,WeatherDisplay:10.37,2013-07-23 08:20:00,
2013-07-23 04:22:00,73.9,67.7,29.87,WSW,248,1.2,1.2,81,0.00,CLR,,0.00,WeatherDisplay:10.37,2013-07-23 08:22:00,
2013-07-23 04:23:00,73.9,67.7,29.87,WSW,248,1.5,1.5,81,0.00,CLR,,0.00,WeatherDisplay:10.37,2013-07-23 08:23:00,
2013-07-23 04:25:00,73.9,67.7,29.87,WNW,292,2.3,2.3,81,0.00,CLR,,0.00,WeatherDisplay:10.37,2013-07-23 08:25:00,
2013-07-23 04:27:00,73.8,67.6,29.87,SW,225,2.3,2.3,81,0.00,CLR,,0.00,WeatherDisplay:10.37,2013-07-23 08:27:00,
2013-07-23 04:28:00,73.8,67.6,29.87,SW,225,2.3,2.3,81,0.00,CLR,,0.00,WeatherDisplay:10.37,2013-07-23 08:28:00,
2013-07-23 04:29:00,73.8,67.6,29.87,ESE,112,2.3,2.3,81,0.00,CLR,,0.00,WeatherDisplay:10.37,2013-07-23 08:29:00,
2013-07-23 04:30:00,73.8,67.2,29.87,West,270,2.3,2.3,80,0.00,CLR,,0.00,WeatherDisplay:10.37,2013-07-23 08:30:00,
2013-07-23 04:32:00,73.8,67.2,29.87,West,270,2.3,2.3,80,0.00,CLR,,0.00,WeatherDisplay:10.37,2013-07-23 08:32:00,
2013-07-23 04:33:00,73.8,67.6,29.87,WNW,292,2.4,2.4,81,0.00,CLR,,0.00,WeatherDisplay:10.37,2013-07-23 08:33:00,
2013-07-23 04:35:00,73.6,67.0,29.87,NNW,338,5.9,5.9,80,0.00,CLR,,0.00,WeatherDisplay:10.37,2013-07-23 08:35:00,
2013-07-23 04:37:00,73.6,67.0,29.87,West,270,5.8,5.8,80,0.00,CLR,,0.00,WeatherDisplay:10.37,2013-07-23 08:37:00,
2013-07-23 04:38:00,73.6,67.0,29.87,West,270,1.2,1.2,80,0.00,CLR,,0.00,WeatherDisplay:10.37,2013-07-23 08:38:00,
2013-07-23 04:39:00,73.6,67.0,29.87,South,180,1.2,1.2,80,0.00,CLR,,0.00,WeatherDisplay:10.37,2013-07-23 08:39:00,
2013-07-23 04:40:00,73.6,67.0,29.87,South,180,1.2,1.2,80,0.00,CLR,,0.00,WeatherDisplay:10.37,2013-07-23 08:40:00,
2013-07-23 04:42:00,73.4,66.9,29.87,West,270,2.3,2.3,80,0.00,CLR,,0.00,WeatherDisplay:10.37,2013-07-23 08:42:00,
2013-07-23 04:43:00,73.4,66.9,29.87,SSE,158,2.6,2.6,80,0.00,CLR,,0.00,WeatherDisplay:10.37,2013-07-23 08:43:00,
2013-07-23 04:44:00,73.4,66.9,29.87,SSE,158,2.6,2.6,80,0.00,CLR,,0.00,WeatherDisplay:10.37,2013-07-23 08:44:00,
2013-07-23 04:45:00,73.4,66.9,29.87,ENE,68,2.3,2.3,80,0.00,CLR,,0.00,WeatherDisplay:10.37,2013-07-23 08:45:00,
2013-07-23 04:46:00,73.4,66.9,29.87,ENE,68,1.2,1.2,80,0.00,CLR,,0.00,WeatherDisplay:10.37,2013-07-23 08:46:00,
2013-07-23 04:47:00,73.4,66.9,29.87,WSW,248,2.3,2.3,80,0.00,CLR,,0.00,WeatherDisplay:10.37,2013-07-23 08:47:00,
2013-07-23 04:48:00,73.6,67.4,29.87,NW,315,2.3,2.3,81,0.00,CLR,,0.00,WeatherDisplay:10.37,2013-07-23 08:48:00,
2013-07-23 04:49:00,73.6,67.4,29.87,NW,315,2.3,2.3,81,0.00,CLR,,0.00,WeatherDisplay:10.37,2013-07-23 08:49:00,
2013-07-23 04:50:00,73.4,66.9,29.87,NW,315,1.2,1.2,80,0.00,CLR,,0.00,WeatherDisplay:10.37,2013-07-23 08:50:00,
2013-07-23 04:51:00,73.4,66.9,29.87,WSW,248,2.3,2.3,80,0.00,CLR,,0.00,WeatherDisplay:10.37,2013-07-23 08:51:00,
2013-07-23 04:52:00,73.6,67.0,29.87,ENE,68,2.3,2.3,80,0.00,CLR,,0.00,WeatherDisplay:10.37,2013-07-23 08:52:00,
2013-07-23 04:54:00,73.6,67.0,29.87,ENE,68,2.3,2.3,80,0.00,CLR,,0.00,WeatherDisplay:10.37,2013-07-23 08:54:00,
2013-07-23 04:55:00,73.4,66.9,29.87,NE,45,2.3,2.3,80,0.00,CLR,,0.00,WeatherDisplay:10.37,2013-07-23 08:55:00,
2013-07-23 04:56:00,73.4,66.9,29.87,NE,45,2.3,2.3,80,0.00,CLR,,0.00,WeatherDisplay:10.37,2013-07-23 08:56:00,
2013-07-23 04:57:00,73.4,66.9,29.87,West,270,2.3,2.3,80,0.00,CLR,,0.00,WeatherDisplay:10.37,2013-07-23 08:57:00,
2013-07-23 04:59:00,73.4,66.9,29.87,NNW,338,1.2,1.2,80,0.00,CLR,,0.00,WeatherDisplay:10.37,2013-07-23 08:59:00,
2013-07-23 05:00:00,73.4,66.9,29.88,NE,45,1.2,1.2,80,0.00,CLR,,0.00,WeatherDisplay:10.37,2013-07-23 09:00:00,
2013-07-23 05:01:00,73.4,66.9,29.88,NE,45,1.2,1.2,80,0.00,CLR,,0.00,WeatherDisplay:10.37,2013-07-23 09:01:00,
2013-07-23 05:03:00,73.4,66.9,29.88,ESE,112,1.0,1.0,80,0.00,CLR,,0.00,WeatherDisplay:10.37,2013-07-23 09:03:00,
2013-07-23 05:04:00,73.4,67.2,29.88,ESE,112,1.2,1.2,81,0.00,CLR,,0.00,WeatherDisplay:10.37,2013-07-23 09:04:00,
2013-07-23 05:06:00,73.4,67.2,29.88,SSE,158,2.3,2.3,81,0.00,CLR,,0.00,WeatherDisplay:10.37,2013-07-23 09:06:00,
2013-07-23 05:07:00,73.4,67.2,29.88,WSW,248,2.3,2.3,81,0.00,CLR,,0.00,WeatherDisplay:10.37,2013-07-23 09:07:00,
2013-07-23 05:08:00,73.4,67.2,29.88,WSW,248,1.2,1.2,81,0.00,CLR,,0.00,WeatherDisplay:10.37,2013-07-23 09:08:00,
2013-07-23 05:09:00,73.4,67.2,29.88,NE,45,1.2,1.2,81,0.00,CLR,,0.00,WeatherDisplay:10.37,2013-07-23 09:09:00,
2013-07-23 05:10:00,73.4,67.2,29.88,NE,45,1.2,1.2,81,0.00,CLR,,0.00,WeatherDisplay:10.37,2013-07-23 09:10:00,
2013-07-23 05:11:00,73.4,67.2,29.88,West,270,2.3,2.3,81,0.00,CLR,,0.00,WeatherDisplay:10.37,2013-07-23 09:11:00,
2013-07-23 05:12:00,73.4,67.2,29.88,West,270,2.3,2.3,81,0.00,CLR,,0.00,WeatherDisplay:10.37,2013-07-23 09:12:00,
2013-07-23 05:13:00,73.4,67.2,29.88,WSW,248,2.3,2.3,81,0.00,CLR,,0.00,WeatherDisplay:10.37,2013-07-23 09:13:00,
2013-07-23 05:14:00,73.4,67.2,29.88,WSW,248,2.3,2.3,81,0.00,CLR,,0.00,WeatherDisplay:10.37,2013-07-23 09:14:00,
2013-07-23 05:15:00,73.4,67.2,29.88,ESE,112,2.3,2.3,81,0.00,CLR,,0.00,WeatherDisplay:10.37,2013-07-23 09:15:00,
2013-07-23 05:16:00,73.2,67.4,29.88,NW,315,1.6,1.6,82,0.00,CLR,,0.00,WeatherDisplay:10.37,2013-07-23 09:16:00,
2013-07-23 05:17:00,73.2,67.4,29.88,NW,315,1.2,1.2,82,0.00,CLR,,0.00,WeatherDisplay:10.37,2013-07-23 09:17:00,
2013-07-23 05:19:00,73.2,67.4,29.88,West,270,2.3,2.3,82,0.00,CLR,,0.00,WeatherDisplay:10.37,2013-07-23 09:19:00,
2013-07-23 05:20:00,73.2,67.4,29.88,West,270,2.3,2.3,82,0.00,CLR,,0.00,WeatherDisplay:10.37,2013-07-23 09:20:00,
2013-07-23 05:21:00,73.2,67.4,29.88,NNE,22,2.3,2.3,82,0.00,CLR,,0.00,WeatherDisplay:10.37,2013-07-23 09:21:00,
2013-07-23 05:22:00,73.2,67.4,29.88,NNE,22,2.3,2.3,82,0.00,CLR,,0.00,WeatherDisplay:10.37,2013-07-23 09:22:00,
2013-07-23 05:24:00,73.2,67.4,29.88,SW,225,3.6,3.6,82,0.00,CLR,,0.00,WeatherDisplay:10.37,2013-07-23 09:24:00,
2013-07-23 05:25:00,73.2,67.4,29.88,SW,225,3.5,3.5,82,0.00,CLR,,0.00,WeatherDisplay:10.37,2013-07-23 09:25:00,
2013-07-23 05:26:00,73.4,67.2,29.88,NNW,338,2.3,2.3,81,0.00,CLR,,0.00,WeatherDisplay:10.37,2013-07-23 09:26:00,
2013-07-23 05:27:00,73.4,67.2,29.88,NNW,338,2.3,2.3,81,0.00,CLR,,0.00,WeatherDisplay:10.37,2013-07-23 09:27:00,
2013-07-23 05:29:00,73.4,67.2,29.88,East,90,2.3,2.3,81,0.00,CLR,,0.00,WeatherDisplay:10.37,2013-07-23 09:29:00,
2013-07-23 05:30:00,73.4,67.2,29.88,East,90,2.3,2.3,81,0.00,CLR,,0.00,WeatherDisplay:10.37,2013-07-23 09:30:00,
2013-07-23 05:31:00,73.4,67.2,29.88,West,270,2.3,2.3,81,0.00,CLR,,0.00,WeatherDisplay:10.37,2013-07-23 09:31:00,
2013-07-23 05:33:00,73.4,67.2,29.88,WSW,248,1.2,1.2,81,0.00,CLR,,0.00,WeatherDisplay:10.37,2013-07-23 09:33:00,
2013-07-23 05:34:00,73.2,67.4,29.88,ENE,68,0.0,0.8,82,0.00,CLR,,0.00,WeatherDisplay:10.37,2013-07-23 09:34:00,
2013-07-23 05:35:00,73.2,67.4,29.88,ENE,68,3.5,3.5,82,0.00,CLR,,0.00,WeatherDisplay:10.37,2013-07-23 09:35:00,
2013-07-23 05:37:00,73.2,67.4,29.88,West,270,3.5,3.5,82,0.00,CLR,,0.00,WeatherDisplay:10.37,2013-07-23 09:37:00,
2013-07-23 05:39:00,73.2,67.4,29.88,SSW,202,1.2,1.2,82,0.00,CLR,,0.00,WeatherDisplay:10.37,2013-07-23 09:39:00,
2013-07-23 05:40:00,73.2,67.4,29.88,SSW,202,1.2,1.2,82,0.00,CLR,,0.00,WeatherDisplay:10.37,2013-07-23 09:40:00,
2013-07-23 05:42:00,73.0,67.2,29.88,ENE,68,1.2,1.2,82,0.00,CLR,,0.00,WeatherDisplay:10.37,2013-07-23 09:42:00,
2013-07-23 05:44:00,73.0,67.2,29.88,WNW,292,1.2,1.2,82,0.00,CLR,,0.00,WeatherDisplay:10.37,2013-07-23 09:44:00,
2013-07-23 05:45:00,73.0,67.2,29.88,WNW,292,2.3,2.3,82,0.00,CLR,,0.00,WeatherDisplay:10.37,2013-07-23 09:45:00,
2013-07-23 05:47:00,73.2,67.4,29.88,WNW,292,2.3,2.3,82,0.00,CLR,,0.00,WeatherDisplay:10.37,2013-07-23 09:47:00,
2013-07-23 05:49:00,73.0,67.2,29.88,SE,135,0.0,0.6,82,0.00,CLR,,0.00,WeatherDisplay:10.37,2013-07-23 09:49:00,
2013-07-23 05:50:00,73.0,67.2,29.88,SE,135,0.0,0.6,82,0.00,CLR,,0.00,WeatherDisplay:10.37,2013-07-23 09:50:00,
2013-07-23 05:51:00,73.0,67.2,29.88,West,270,1.2,1.2,82,0.00,CLR,,0.00,WeatherDisplay:10.37,2013-07-23 09:51:00,
2013-07-23 05:52:00,73.0,67.2,29.88,West,270,1.2,1.2,82,0.00,CLR,,0.00,WeatherDisplay:10.37,2013-07-23 09:52:00,
2013-07-23 05:54:00,72.9,67.0,29.88,WNW,292,2.3,2.3,82,0.00,CLR,,0.00,WeatherDisplay:10.37,2013-07-23 09:54:00,
2013-07-23 05:55:00,72.9,67.0,29.88,WNW,292,3.5,3.5,82,0.00,CLR,,0.00,WeatherDisplay:10.37,2013-07-23 09:55:00,
2013-07-23 05:56:00,72.9,67.0,29.88,WNW,292,3.5,3.5,82,0.00,CLR,,0.00,WeatherDisplay:10.37,2013-07-23 09:56:00,
2013-07-23 05:57:00,73.0,67.2,29.88,West,270,3.5,3.5,82,0.00,CLR,,0.00,WeatherDisplay:10.37,2013-07-23 09:57:00,
2013-07-23 06:00:00,73.0,67.2,29.88,ENE,68,0.0,0.5,82,0.00,CLR,,0.00,WeatherDisplay:10.37,2013-07-23 10:00:00,
2013-07-23 06:01:00,73.0,67.2,29.88,South,180,0.0,0.5,82,0.00,CLR,,0.00,WeatherDisplay:10.37,2013-07-23 10:01:00,
2013-07-23 06:02:00,73.0,67.2,29.88,South,180,0.0,0.5,82,0.00,CLR,,0.00,WeatherDisplay:10.37,2013-07-23 10:02:00,
2013-07-23 06:05:00,72.9,67.0,29.88,West,270,0.0,0.3,82,0.00,CLR,,0.00,WeatherDisplay:10.37,2013-07-23 10:05:00,
2013-07-23 06:06:00,73.0,67.2,29.88,West,270,0.0,0.3,82,0.00,CLR,,0.00,WeatherDisplay:10.37,2013-07-23 10:06:00,
2013-07-23 06:07:00,73.0,67.2,29.88,West,270,0.0,0.1,82,0.00,CLR,,0.00,WeatherDisplay:10.37,2013-07-23 10:07:00,
2013-07-23 06:10:00,72.9,67.0,29.88,NW,315,0.0,0.0,82,0.00,CLR,,0.00,WeatherDisplay:10.37,2013-07-23 10:10:00,
2013-07-23 06:11:00,72.9,67.0,29.88,WSW,248,0.0,0.1,82,0.00,CLR,,0.00,WeatherDisplay:10.37,2013-07-23 10:11:00,
2013-07-23 06:12:00,72.7,66.9,29.88,SW,225,1.7,1.7,82,0.00,CLR,,0.00,WeatherDisplay:10.37,2013-07-23 10:12:00,
2013-07-23 06:15:00,72.9,67.0,29.88,WSW,248,2.3,2.3,82,0.00,CLR,,0.00,WeatherDisplay:10.37,2013-07-23 10:15:00,
2013-07-23 06:16:00,72.9,67.0,29.88,WSW,248,2.3,2.3,82,0.00,CLR,,0.00,WeatherDisplay:10.37,2013-07-23 10:16:00,
2013-07-23 06:17:00,72.9,67.0,29.88,WSW,248,0.0,0.3,82,0.00,CLR,,0.00,WeatherDisplay:10.37,2013-07-23 10:17:00,
2013-07-23 06:18:00,72.9,67.0,29.88,WSW,248,0.0,0.3,82,0.00,CLR,,0.00,WeatherDisplay:10.37,2013-07-23 10:18:00,
2013-07-23 06:20:00,72.9,67.0,29.89,WSW,248,0.0,0.3,82,0.00,CLR,,0.00,WeatherDisplay:10.37,2013-07-23 10:20:00,
2013-07-23 06:21:00,72.9,67.0,29.89,WSW,248,0.0,0.3,82,0.00,CLR,,0.00,WeatherDisplay:10.37,2013-07-23 10:21:00,
2013-07-23 06:23:00,72.9,67.0,29.89,WSW,248,0.0,0.2,82,0.00,CLR,,0.00,WeatherDisplay:10.37,2013-07-23 10:23:00,
2013-07-23 06:26:00,72.9,67.0,29.89,ESE,112,0.0,0.0,82,0.00,CLR,,0.00,WeatherDisplay:10.37,2013-07-23 10:26:00,
2013-07-23 06:28:00,72.9,67.0,29.89,SW,225,0.0,0.0,82,0.00,CLR,,0.00,WeatherDisplay:10.37,2013-07-23 10:28:00,
2013-07-23 06:31:00,72.9,67.0,29.89,West,270,0.0,0.0,82,0.00,CLR,,0.00,WeatherDisplay:10.37,2013-07-23 10:31:00,
2013-07-23 06:32:00,72.9,67.0,29.89,West,270,0.0,0.0,82,0.00,CLR,,0.00,WeatherDisplay:10.37,2013-07-23 10:32:00,
2013-07-23 06:33:00,72.9,67.0,29.89,WSW,248,1.2,1.2,82,0.00,CLR,,0.00,WeatherDisplay:10.37,2013-07-23 10:33:00,
2013-07-23 06:36:00,72.9,67.0,29.89,West,270,0.0,0.0,82,0.00,CLR,,0.00,WeatherDisplay:10.37,2013-07-23 10:36:00,
2013-07-23 06:37:00,72.9,67.0,29.89,WSW,248,0.0,0.0,82,0.00,CLR,,0.00,WeatherDisplay:10.37,2013-07-23 10:37:00,
2013-07-23 06:38:00,72.9,67.0,29.89,WNW,292,2.0,2.0,82,0.00,CLR,,0.00,WeatherDisplay:10.37,2013-07-23 10:38:00,
2013-07-23 06:39:00,72.9,67.0,29.89,WNW,292,2.3,2.3,82,0.00,CLR,,0.00,WeatherDisplay:10.37,2013-07-23 10:39:00,
2013-07-23 06:42:00,72.7,66.9,29.90,WNW,292,2.3,2.3,82,0.00,CLR,,0.00,WeatherDisplay:10.37,2013-07-23 10:42:00,
2013-07-23 06:43:00,72.7,66.9,29.90,WNW,292,0.0,0.2,82,0.00,CLR,,0.00,WeatherDisplay:10.37,2013-07-23 10:43:00,
2013-07-23 06:44:00,72.7,66.9,29.90,WNW,292,0.0,0.2,82,0.00,CLR,,0.00,WeatherDisplay:10.37,2013-07-23 10:44:00,
2013-07-23 06:47:00,72.7,66.9,29.90,West,270,0.0,0.2,82,0.00,CLR,,0.00,WeatherDisplay:10.37,2013-07-23 10:47:00,
2013-07-23 06:49:00,72.7,66.9,29.90,NE,45,1.5,1.5,82,0.00,CLR,,0.00,WeatherDisplay:10.37,2013-07-23 10:49:00,
2013-07-23 06:52:00,72.7,66.9,29.90,ESE,112,0.0,0.1,82,0.00,CLR,,0.00,WeatherDisplay:10.37,2013-07-23 10:52:00,
2013-07-23 06:54:00,72.7,66.9,29.90,ENE,68,0.0,0.1,82,0.00,CLR,,0.00,WeatherDisplay:10.37,2013-07-23 10:54:00,
2013-07-23 06:57:00,72.7,66.9,29.90,ENE,68,0.0,0.1,82,0.00,CLR,,0.00,WeatherDisplay:10.37,2013-07-23 10:57:00,
2013-07-23 06:59:00,72.7,66.9,29.90,ENE,68,0.0,0.0,82,0.00,CLR,,0.00,WeatherDisplay:10.37,2013-07-23 10:59:00,
2013-07-23 07:02:00,72.7,66.9,29.90,ENE,68,0.0,0.0,82,0.00,CLR,,0.00,WeatherDisplay:10.37,2013-07-23 11:02:00,
2013-07-23 07:03:00,72.7,66.9,29.90,ENE,68,0.0,0.0,82,0.00,CLR,,0.00,WeatherDisplay:10.37,2013-07-23 11:03:00,
2013-07-23 07:05:00,72.7,66.9,29.90,ENE,68,0.0,0.0,82,0.00,CLR,,0.00,WeatherDisplay:10.37,2013-07-23 11:05:00,
2013-07-23 07:07:00,72.5,66.7,29.90,ENE,68,0.0,0.0,82,0.00,CLR,,0.00,WeatherDisplay:10.37,2013-07-23 11:07:00,
2013-07-23 07:08:00,72.5,66.7,29.90,ENE,68,0.0,0.0,82,0.00,CLR,,0.00,WeatherDisplay:10.37,2013-07-23 11:08:00,
2013-07-23 07:10:00,72.5,66.7,29.90,ENE,68,0.0,0.0,82,0.00,CLR,,0.00,WeatherDisplay:10.37,2013-07-23 11:10:00,
2013-07-23 07:13:00,72.5,66.7,29.90,ENE,68,0.0,0.0,82,0.00,CLR,,0.00,WeatherDisplay:10.37,2013-07-23 11:13:00,
2013-07-23 07:15:00,72.5,66.7,29.90,ENE,68,0.0,0.0,82,0.00,CLR,,0.00,WeatherDisplay:10.37,2013-07-23 11:15:00,
2013-07-23 07:18:00,72.5,66.7,29.90,ENE,68,0.0,0.0,82,0.00,CLR,,0.00,WeatherDisplay:10.37,2013-07-23 11:18:00,
2013-07-23 07:20:00,72.5,66.7,29.90,ENE,68,0.0,0.0,82,0.00,CLR,,0.00,WeatherDisplay:10.37,2013-07-23 11:20:00,
2013-07-23 07:23:00,72.5,66.7,29.89,ENE,68,0.0,0.0,82,0.00,CLR,,0.00,WeatherDisplay:10.37,2013-07-23 11:23:00,
2013-07-23 07:24:00,72.5,66.7,29.89,ENE,68,0.0,0.0,82,0.00,CLR,,0.00,WeatherDisplay:10.37,2013-07-23 11:24:00,
2013-07-23 07:25:00,72.5,66.7,29.89,West,270,0.0,0.1,82,0.00,CLR,,0.00,WeatherDisplay:10.37,2013-07-23 11:25:00,
2013-07-23 07:26:00,72.5,66.7,29.89,West,270,0.0,0.1,82,0.00,CLR,,0.00,WeatherDisplay:10.37,2013-07-23 11:26:00,
2013-07-23 07:28:00,72.5,66.7,29.89,NNE,22,0.0,0.1,82,0.00,CLR,,0.00,WeatherDisplay:10.37,2013-07-23 11:28:00,
2013-07-23 07:29:00,72.5,66.7,29.89,WNW,292,0.0,0.1,82,0.00,CLR,,0.00,WeatherDisplay:10.37,2013-07-23 11:29:00,
2013-07-23 07:30:00,72.5,66.7,29.89,WNW,292,0.0,0.1,82,0.00,CLR,,0.00,WeatherDisplay:10.37,2013-07-23 11:30:00,
2013-07-23 07:31:00,72.5,66.7,29.89,WNW,292,0.0,0.1,82,0.00,CLR,,0.00,WeatherDisplay:10.37,2013-07-23 11:31:00,
2013-07-23 07:33:00,72.5,67.0,29.89,NW,315,0.0,0.1,83,0.00,CLR,,0.00,WeatherDisplay:10.37,2013-07-23 11:33:00,
2013-07-23 07:34:00,72.5,67.0,29.89,NW,315,0.0,0.1,83,0.00,CLR,,0.00,WeatherDisplay:10.37,2013-07-23 11:34:00,
2013-07-23 07:35:00,72.5,67.0,29.89,NW,315,0.0,0.0,83,0.00,CLR,,0.00,WeatherDisplay:10.37,2013-07-23 11:35:00,
2013-07-23 07:36:00,72.5,67.0,29.89,NW,315,0.0,0.0,83,0.00,CLR,,0.00,WeatherDisplay:10.37,2013-07-23 11:36:00,
2013-07-23 07:38:00,72.5,67.0,29.89,SE,135,0.0,0.0,83,0.00,CLR,,0.00,WeatherDisplay:10.37,2013-07-23 11:38:00,
2013-07-23 07:39:00,72.5,67.0,29.89,SE,135,0.0,0.0,83,0.00,CLR,,0.00,WeatherDisplay:10.37,2013-07-23 11:39:00,
2013-07-23 07:40:00,72.5,67.0,29.89,ESE,112,0.0,0.0,83,0.00,CLR,,0.00,WeatherDisplay:10.37,2013-07-23 11:40:00,
2013-07-23 07:41:00,72.5,67.0,29.89,ESE,112,0.0,0.0,83,0.00,CLR,,0.00,WeatherDisplay:10.37,2013-07-23 11:41:00,
2013-07-23 07:43:00,72.5,67.0,29.89,ESE,112,0.0,0.0,83,0.00,CLR,,0.00,WeatherDisplay:10.37,2013-07-23 11:43:00,
2013-07-23 07:44:00,72.5,67.0,29.89,ESE,112,0.0,0.0,83,0.00,CLR,,0.00,WeatherDisplay:10.37,2013-07-23 11:44:00,
2013-07-23 07:46:00,72.5,67.0,29.89,ESE,112,0.0,0.0,83,0.00,CLR,,0.00,WeatherDisplay:10.37,2013-07-23 11:46:00,
2013-07-23 07:48:00,72.5,67.0,29.89,ESE,112,0.0,0.0,83,0.00,CLR,,0.00,WeatherDisplay:10.37,2013-07-23 11:48:00,
2013-07-23 07:49:00,72.5,67.0,29.89,ESE,112,0.0,0.0,83,0.00,CLR,,0.00,WeatherDisplay:10.37,2013-07-23 11:49:00,
2013-07-23 07:51:00,72.5,67.0,29.89,SW,225,1.5,1.5,83,0.00,CLR,,0.00,WeatherDisplay:10.37,2013-07-23 11:51:00,
2013-07-23 07:52:00,72.5,67.0,29.89,SW,225,1.5,1.5,83,0.00,CLR,,0.00,WeatherDisplay:10.37,2013-07-23 11:52:00,
2013-07-23 07:53:00,72.5,67.0,29.89,NW,315,1.2,1.2,83,0.00,CLR,,0.00,WeatherDisplay:10.37,2013-07-23 11:53:00,
2013-07-23 07:54:00,72.5,67.0,29.89,NW,315,1.2,1.2,83,0.00,CLR,,0.00,WeatherDisplay:10.37,2013-07-23 11:54:00,
2013-07-23 07:56:00,72.5,67.0,29.89,West,270,0.0,0.3,83,0.00,CLR,,0.00,WeatherDisplay:10.37,2013-07-23 11:56:00,
2013-07-23 07:57:00,72.5,67.0,29.89,West,270,1.2,1.2,83,0.00,CLR,,0.00,WeatherDisplay:10.37,2013-07-23 11:57:00,
2013-07-23 07:58:00,72.5,67.0,29.89,West,270,1.3,1.3,83,0.00,CLR,,0.00,WeatherDisplay:10.37,2013-07-23 11:58:00,
2013-07-23 07:59:00,72.5,67.0,29.89,NW,315,1.2,1.2,83,0.00,CLR,,0.00,WeatherDisplay:10.37,2013-07-23 11:59:00,
2013-07-23 08:00:00,72.5,67.0,29.89,NW,315,1.2,1.2,83,0.00,CLR,,0.00,WeatherDisplay:10.37,2013-07-23 12:00:00,
2013-07-23 08:02:00,72.5,67.4,29.89,WSW,248,2.3,2.3,84,0.00,CLR,,0.00,WeatherDisplay:10.37,2013-07-23 12:02:00,
2013-07-23 08:03:00,72.5,67.4,29.89,WSW,248,2.3,2.3,84,0.00,CLR,,0.00,WeatherDisplay:10.37,2013-07-23 12:03:00,
2013-07-23 08:04:00,72.5,67.4,29.89,WSW,248,2.3,2.3,84,0.00,CLR,,0.00,WeatherDisplay:10.37,2013-07-23 12:04:00,
2013-07-23 08:05:00,72.7,67.6,29.89,WSW,248,2.3,2.3,84,0.00,CLR,,0.00,WeatherDisplay:10.37,2013-07-23 12:05:00,
2013-07-23 08:07:00,72.7,67.2,29.89,NNW,338,0.0,0.3,83,0.00,CLR,,0.00,WeatherDisplay:10.37,2013-07-23 12:07:00,
2013-07-23 08:08:00,72.7,67.2,29.89,NNW,338,0.0,0.3,83,0.00,CLR,,0.00,WeatherDisplay:10.37,2013-07-23 12:08:00,
2013-07-23 08:09:00,72.7,67.6,29.89,ENE,68,0.0,0.3,84,0.00,CLR,,0.00,WeatherDisplay:10.37,2013-07-23 12:09:00,
2013-07-23 08:11:00,72.7,67.6,29.89,NE,45,0.0,0.2,84,0.00,CLR,,0.00,WeatherDisplay:10.37,2013-07-23 12:11:00,
2013-07-23 08:13:00,72.7,67.2,29.89,West,270,0.0,0.2,83,0.00,CLR,,0.00,WeatherDisplay:10.37,2013-07-23 12:13:00,
2013-07-23 08:14:00,72.7,67.6,29.89,South,180,1.3,0.0,84,0.00,CLR,,0.00,WeatherDisplay:10.37,2013-07-23 12:14:00,
2013-07-23 08:16:00,72.7,67.6,29.89,South,180,1.3,0.0,84,0.00,CLR,,0.00,WeatherDisplay:10.37,2013-07-23 12:16:00,
2013-07-23 08:18:00,72.7,67.6,29.89,West,270,2.3,2.3,84,0.00,CLR,,0.00,WeatherDisplay:10.37,2013-07-23 12:18:00,
2013-07-23 08:20:00,72.7,67.6,29.89,WSW,248,2.3,2.3,84,0.00,CLR,,0.00,WeatherDisplay:10.37,2013-07-23 12:20:00,
2013-07-23 08:21:00,72.9,67.7,29.89,ESE,112,0.0,0.3,84,0.00,CLR,,0.00,WeatherDisplay:10.37,2013-07-23 12:21:00,
2013-07-23 08:23:00,72.9,67.7,29.89,SSE,158,0.0,0.3,84,0.00,CLR,,0.00,WeatherDisplay:10.37,2013-07-23 12:23:00,
2013-07-23 08:24:00,72.9,67.7,29.89,SSE,158,0.0,0.3,84,0.00,CLR,,0.00,WeatherDisplay:10.37,2013-07-23 12:24:00,
2013-07-23 08:25:00,72.9,67.7,29.89,NNE,22,0.0,0.3,84,0.00,CLR,,0.00,WeatherDisplay:10.37,2013-07-23 12:25:00,
2013-07-23 08:26:00,72.9,67.7,29.89,SSW,202,0.0,0.3,84,0.00,CLR,,0.00,WeatherDisplay:10.37,2013-07-23 12:26:00,
2013-07-23 08:28:00,72.9,67.7,29.89,West,270,2.3,2.3,84,0.00,CLR,,0.00,WeatherDisplay:10.37,2013-07-23 12:28:00,
2013-07-23 08:29:00,72.9,67.7,29.89,West,270,2.3,2.3,84,0.00,CLR,,0.00,WeatherDisplay:10.37,2013-07-23 12:29:00,
2013-07-23 08:30:00,72.9,67.7,29.89,West,270,2.3,2.3,84,0.00,CLR,,0.00,WeatherDisplay:10.37,2013-07-23 12:30:00,
2013-07-23 08:31:00,73.0,67.9,29.89,ESE,112,0.0,0.3,84,0.00,CLR,,0.00,WeatherDisplay:10.37,2013-07-23 12:31:00,
2013-07-23 08:33:00,73.0,67.9,29.89,ESE,112,0.0,0.3,84,0.00,CLR,,0.00,WeatherDisplay:10.37,2013-07-23 12:33:00,
2013-07-23 08:34:00,73.0,67.9,29.89,ESE,112,0.0,0.3,84,0.00,CLR,,0.00,WeatherDisplay:10.37,2013-07-23 12:34:00,
2013-07-23 08:35:00,73.2,68.1,29.89,West,270,0.0,0.3,84,0.00,CLR,,0.00,WeatherDisplay:10.37,2013-07-23 12:35:00,
2013-07-23 08:36:00,73.2,68.1,29.89,NE,45,0.0,0.2,84,0.00,CLR,,0.00,WeatherDisplay:10.37,2013-07-23 12:36:00,
2013-07-23 08:38:00,73.4,67.9,29.89,South,180,0.0,0.1,83,0.00,CLR,,0.00,WeatherDisplay:10.37,2013-07-23 12:38:00,
2013-07-23 08:39:00,73.4,67.9,29.89,South,180,0.0,0.1,83,0.00,CLR,,0.00,WeatherDisplay:10.37,2013-07-23 12:39:00,
2013-07-23 08:40:00,73.4,67.9,29.89,South,180,0.0,0.1,83,0.00,CLR,,0.00,WeatherDisplay:10.37,2013-07-23 12:40:00,
2013-07-23 08:41:00,73.6,68.1,29.89,ENE,68,0.0,0.0,83,0.00,CLR,,0.00,WeatherDisplay:10.37,2013-07-23 12:41:00,
2013-07-23 08:44:00,73.6,68.1,29.89,WNW,292,0.0,0.1,83,0.00,CLR,,0.00,WeatherDisplay:10.37,2013-07-23 12:44:00,
2013-07-23 08:45:00,73.6,68.1,29.89,WNW,292,0.0,0.2,83,0.00,CLR,,0.00,WeatherDisplay:10.37,2013-07-23 12:45:00,
2013-07-23 08:46:00,73.8,68.3,29.89,ENE,68,0.0,0.2,83,0.00,CLR,,0.00,WeatherDisplay:10.37,2013-07-23 12:46:00,
2013-07-23 08:49:00,73.8,68.3,29.89,WNW,292,0.0,0.2,83,0.00,CLR,,0.00,WeatherDisplay:10.37,2013-07-23 12:49:00,
2013-07-23 08:50:00,73.8,68.3,29.89,WNW,292,0.0,0.2,83,0.00,CLR,,0.00,WeatherDisplay:10.37,2013-07-23 12:50:00,
2013-07-23 08:52:00,73.8,68.3,29.89,ENE,68,0.0,0.2,83,0.00,CLR,,0.00,WeatherDisplay:10.37,2013-07-23 12:52:00,
2013-07-23 08:54:00,73.9,68.1,29.89,NW,315,2.3,2.3,82,0.00,CLR,,0.00,WeatherDisplay:10.37,2013-07-23 12:54:00,
2013-07-23 08:55:00,73.9,68.1,29.89,NNW,338,2.3,2.3,82,0.00,CLR,,0.00,WeatherDisplay:10.37,2013-07-23 12:55:00,
2013-07-23 08:56:00,73.9,68.1,29.89,NNW,338,2.3,2.3,82,0.00,CLR,,0.00,WeatherDisplay:10.37,2013-07-23 12:56:00,
2013-07-23 08:57:00,73.9,68.1,29.89,WSW,248,0.0,0.3,82,0.00,CLR,,0.00,WeatherDisplay:10.37,2013-07-23 12:57:00,
2013-07-23 08:59:00,73.9,68.1,29.89,ESE,112,2.3,2.3,82,0.00,CLR,,0.00,WeatherDisplay:10.37,2013-07-23 12:59:00,
2013-07-23 09:00:00,73.9,68.1,29.89,ESE,112,2.3,2.3,82,0.00,CLR,,0.00,WeatherDisplay:10.37,2013-07-23 13:00:00,
2013-07-23 09:01:00,73.9,68.1,29.90,NE,45,2.3,2.3,82,0.00,CLR,,0.00,WeatherDisplay:10.37,2013-07-23 13:01:00,
2013-07-23 09:02:00,74.1,68.3,29.90,West,270,2.3,2.3,82,0.00,CLR,,0.00,WeatherDisplay:10.37,2013-07-23 13:02:00,
2013-07-23 09:05:00,74.1,68.3,29.90,WNW,292,0.0,0.7,82,0.00,CLR,,0.00,WeatherDisplay:10.37,2013-07-23 13:05:00,
2013-07-23 09:06:00,74.1,68.3,29.90,WNW,292,1.2,1.2,82,0.00,CLR,,0.00,WeatherDisplay:10.37,2013-07-23 13:06:00,
2013-07-23 09:08:00,74.3,68.4,29.90,WNW,292,1.2,1.2,82,0.00,CLR,,0.00,WeatherDisplay:10.37,2013-07-23 13:08:00,
2013-07-23 09:10:00,74.5,68.6,29.90,WSW,248,1.3,1.3,82,0.00,CLR,,0.00,WeatherDisplay:10.37,2013-07-23 13:10:00,
2013-07-23 09:11:00,74.5,68.6,29.90,WSW,248,1.2,1.2,82,0.00,CLR,,0.00,WeatherDisplay:10.37,2013-07-23 13:11:00,
2013-07-23 09:13:00,74.7,68.8,29.90,ESE,112,1.2,1.2,82,0.00,CLR,,0.00,WeatherDisplay:10.37,2013-07-23 13:13:00,
2013-07-23 09:16:00,74.7,68.8,29.90,ENE,68,2.3,2.3,82,0.00,CLR,,0.00,WeatherDisplay:10.37,2013-07-23 13:16:00,
2013-07-23 09:17:00,74.7,68.8,29.90,NW,315,2.3,2.3,82,0.00,CLR,,0.00,WeatherDisplay:10.37,2013-07-23 13:17:00,
2013-07-23 09:18:00,74.8,69.0,29.90,West,270,2.3,2.3,82,0.00,CLR,,0.00,WeatherDisplay:10.37,2013-07-23 13:18:00,
2013-07-23 09:21:00,74.8,69.0,29.88,WSW,248,2.3,2.3,82,0.00,CLR,,0.00,WeatherDisplay:10.37,2013-07-23 13:21:00,
2013-07-23 09:22:00,74.8,69.0,29.88,WSW,248,2.3,2.3,82,0.00,CLR,,0.00,WeatherDisplay:10.37,2013-07-23 13:22:00,
2013-07-23 09:23:00,74.8,69.0,29.88,West,270,1.2,1.2,82,0.00,CLR,,0.00,WeatherDisplay:10.37,2013-07-23 13:23:00,
2013-07-23 09:26:00,75.0,69.1,29.88,WSW,248,2.1,2.1,82,0.00,CLR,,0.00,WeatherDisplay:10.37,2013-07-23 13:26:00,
2013-07-23 09:27:00,75.0,69.1,29.88,WSW,248,1.2,1.3,82,0.00,CLR,,0.00,WeatherDisplay:10.37,2013-07-23 13:27:00,
2013-07-23 09:29:00,75.2,69.3,29.88,SSE,158,2.3,2.3,82,0.00,CLR,,0.00,WeatherDisplay:10.37,2013-07-23 13:29:00,
2013-07-23 09:31:00,75.4,69.5,29.88,SW,225,0.0,1.0,82,0.00,CLR,,0.00,WeatherDisplay:10.37,2013-07-23 13:31:00,
2013-07-23 09:32:00,75.4,69.5,29.88,SW,225,0.0,1.0,82,0.00,CLR,,0.00,WeatherDisplay:10.37,2013-07-23 13:32:00,
2013-07-23 09:34:00,75.4,69.1,29.88,NW,315,1.2,1.2,81,0.00,CLR,,0.00,WeatherDisplay:10.37,2013-07-23 13:34:00,
2013-07-23 09:36:00,75.6,69.3,29.88,WSW,248,0.0,1.2,81,0.00,CLR,,0.00,WeatherDisplay:10.37,2013-07-23 13:36:00,
2013-07-23 09:37:00,75.6,69.3,29.88,WSW,248,0.0,1.2,81,0.00,CLR,,0.00,WeatherDisplay:10.37,2013-07-23 13:37:00,
2013-07-23 09:38:00,75.6,69.3,29.88,WSW,248,3.5,3.5,81,0.00,CLR,,0.00,WeatherDisplay:10.37,2013-07-23 13:38:00,
2013-07-23 09:39:00,75.7,69.5,29.88,SW,225,3.5,3.5,81,0.00,CLR,,0.00,WeatherDisplay:10.37,2013-07-23 13:39:00,
2013-07-23 09:41:00,75.6,69.0,29.90,NNW,338,2.8,2.8,80,0.00,CLR,,0.00,WeatherDisplay:10.37,2013-07-23 13:41:00,
2013-07-23 09:42:00,75.6,69.0,29.90,WNW,292,2.3,2.3,80,0.00,CLR,,0.00,WeatherDisplay:10.37,2013-07-23 13:42:00,
2013-07-23 09:43:00,75.6,69.0,29.90,WNW,292,2.3,2.3,80,0.00,CLR,,0.00,WeatherDisplay:10.37,2013-07-23 13:43:00,
2013-07-23 09:44:00,75.6,69.0,29.90,WNW,292,0.0,1.2,80,0.00,CLR,,0.00,WeatherDisplay:10.37,2013-07-23 13:44:00,
2013-07-23 09:47:00,75.7,69.1,29.90,West,270,2.3,2.3,80,0.00,CLR,,0.00,WeatherDisplay:10.37,2013-07-23 13:47:00,
2013-07-23 09:48:00,75.7,69.1,29.90,West,270,2.3,2.3,80,0.00,CLR,,0.00,WeatherDisplay:10.37,2013-07-23 13:48:00,
2013-07-23 09:49:00,75.9,69.3,29.90,ENE,68,2.3,2.3,80,0.00,CLR,,0.00,WeatherDisplay:10.37,2013-07-23 13:49:00,
2013-07-23 09:52:00,76.1,69.5,29.90,SE,135,2.3,2.3,80,0.00,CLR,,0.00,WeatherDisplay:10.37,2013-07-23 13:52:00,
2013-07-23 09:53:00,76.3,69.7,29.90,SE,135,2.3,2.3,80,0.00,CLR,,0.00,WeatherDisplay:10.37,2013-07-23 13:53:00,
2013-07-23 09:54:00,76.3,69.7,29.90,SE,135,0.0,0.7,80,0.00,CLR,,0.00,WeatherDisplay:10.37,2013-07-23 13:54:00,
2013-07-23 09:57:00,76.5,69.8,29.90,WSW,248,1.2,1.2,80,0.00,CLR,,0.00,WeatherDisplay:10.37,2013-07-23 13:57:00,
2013-07-23 09:58:00,76.5,69.8,29.90,WSW,248,1.4,1.4,80,0.00,CLR,,0.00,WeatherDisplay:10.37,2013-07-23 13:58:00,
2013-07-23 09:59:00,76.5,69.8,29.90,SSW,202,1.2,1.2,80,0.00,CLR,,0.00,WeatherDisplay:10.37,2013-07-23 13:59:00,
2013-07-23 10:02:00,77.0,70.4,29.90,WSW,248,1.4,1.4,80,0.00,CLR,,0.00,WeatherDisplay:10.37,2013-07-23 14:02:00,
2013-07-23 10:03:00,77.0,70.4,29.90,WSW,248,1.2,1.2,80,0.00,CLR,,0.00,WeatherDisplay:10.37,2013-07-23 14:03:00,
2013-07-23 10:05:00,77.0,70.4,29.90,NE,45,1.2,1.2,80,0.00,CLR,,0.00,WeatherDisplay:10.37,2013-07-23 14:05:00,
2013-07-23 10:07:00,77.0,70.0,29.90,WNW,292,2.3,2.3,79,0.00,CLR,,0.00,WeatherDisplay:10.37,2013-07-23 14:07:00,
2013-07-23 10:08:00,77.0,70.0,29.90,WNW,292,2.3,2.3,79,0.00,CLR,,0.00,WeatherDisplay:10.37,2013-07-23 14:08:00,
2013-07-23 10:09:00,77.2,70.2,29.90,NNE,22,2.3,2.3,79,0.00,CLR,,0.00,WeatherDisplay:10.37,2013-07-23 14:09:00,
2013-07-23 10:10:00,77.2,70.2,29.90,NNE,22,2.3,2.3,79,0.00,CLR,,0.00,WeatherDisplay:10.37,2013-07-23 14:10:00,
2013-07-23 10:12:00,77.5,70.5,29.90,North,0,2.1,2.1,79,0.00,CLR,,0.00,WeatherDisplay:10.37,2013-07-23 14:12:00,
2013-07-23 10:13:00,77.5,70.5,29.90,North,0,2.3,2.3,79,0.00,CLR,,0.00,WeatherDisplay:10.37,2013-07-23 14:13:00,
2013-07-23 10:14:00,77.5,70.5,29.90,North,0,2.3,2.3,79,0.00,CLR,,0.00,WeatherDisplay:10.37,2013-07-23 14:14:00,
2013-07-23 10:15:00,77.7,70.7,29.90,SW,225,2.3,2.3,79,0.00,CLR,,0.00,WeatherDisplay:10.37,2013-07-23 14:15:00,
2013-07-23 10:17:00,77.7,70.3,29.90,West,270,3.5,3.5,78,0.00,CLR,,0.00,WeatherDisplay:10.37,2013-07-23 14:17:00,
2013-07-23 10:18:00,77.7,70.3,29.90,WSW,248,0.0,1.2,78,0.00,CLR,,0.00,WeatherDisplay:10.37,2013-07-23 14:18:00,
2013-07-23 10:19:00,77.7,70.3,29.90,WSW,248,0.0,1.2,78,0.00,CLR,,0.00,WeatherDisplay:10.37,2013-07-23 14:19:00,
2013-07-23 10:20:00,77.9,70.5,29.90,SE,135,2.3,2.3,78,0.00,CLR,,0.00,WeatherDisplay:10.37,2013-07-23 14:20:00,
2013-07-23 10:23:00,77.9,70.5,29.90,ESE,112,2.3,2.3,78,0.00,CLR,,0.00,WeatherDisplay:10.37,2013-07-23 14:23:00,
2013-07-23 10:24:00,77.9,70.5,29.90,ESE,112,2.3,2.3,78,0.00,CLR,,0.00,WeatherDisplay:10.37,2013-07-23 14:24:00,
2013-07-23 10:25:00,77.9,70.1,29.90,WNW,292,2.3,2.3,77,0.00,CLR,,0.00,WeatherDisplay:10.37,2013-07-23 14:25:00,
2013-07-23 10:28:00,78.1,70.3,29.90,ENE,68,0.0,1.0,77,0.00,CLR,,0.00,WeatherDisplay:10.37,2013-07-23 14:28:00,
2013-07-23 10:29:00,78.3,70.8,29.90,West,270,2.3,2.3,78,0.00,CLR,,0.00,WeatherDisplay:10.37,2013-07-23 14:29:00,
2013-07-23 10:30:00,78.4,70.6,29.90,WSW,248,2.3,2.3,77,0.00,CLR,,0.00,WeatherDisplay:10.37,2013-07-23 14:30:00,
2013-07-23 10:33:00,78.4,70.6,29.90,WSW,248,2.5,2.5,77,0.00,CLR,,0.00,WeatherDisplay:10.37,2013-07-23 14:33:00,
2013-07-23 10:34:00,78.6,70.8,29.90,WSW,248,2.3,2.3,77,0.00,CLR,,0.00,WeatherDisplay:10.37,2013-07-23 14:34:00,
2013-07-23 10:36:00,78.6,70.8,29.90,West,270,2.5,2.5,77,0.00,CLR,,0.00,WeatherDisplay:10.37,2013-07-23 14:36:00,
2013-07-23 10:38:00,78.6,70.8,29.90,NW,315,0.0,1.3,77,0.00,CLR,,0.00,WeatherDisplay:10.37,2013-07-23 14:38:00,
2013-07-23 10:39:00,78.6,70.8,29.90,NW,315,1.2,1.3,77,0.00,CLR,,0.00,WeatherDisplay:10.37,2013-07-23 14:39:00,
2013-07-23 10:40:00,78.6,70.8,29.90,NW,315,1.2,1.3,77,0.00,CLR,,0.00,WeatherDisplay:10.37,2013-07-23 14:40:00,
2013-07-23 10:41:00,78.8,70.6,29.90,NW,315,1.2,1.3,76,0.00,CLR,,0.00,WeatherDisplay:10.37,2013-07-23 14:41:00,
2013-07-23 10:44:00,78.8,70.6,29.90,NW,315,0.0,1.3,76,0.00,CLR,,0.00,WeatherDisplay:10.37,2013-07-23 14:44:00,
2013-07-23 10:45:00,78.8,70.6,29.90,NW,315,0.0,1.3,76,0.00,CLR,,0.00,WeatherDisplay:10.37,2013-07-23 14:45:00,
2013-07-23 10:46:00,78.8,70.6,29.90,NW,315,0.0,1.3,76,0.00,CLR,,0.00,WeatherDisplay:10.37,2013-07-23 14:46:00,
2013-07-23 10:49:00,78.8,70.6,29.90,NW,315,0.0,1.3,76,0.00,CLR,,0.00,WeatherDisplay:10.37,2013-07-23 14:49:00,
2013-07-23 10:50:00,78.8,70.2,29.90,NW,315,0.0,0.5,75,0.00,CLR,,0.00,WeatherDisplay:10.37,2013-07-23 14:50:00,
2013-07-23 10:51:00,78.8,70.2,29.90,NW,315,0.0,0.5,75,0.00,CLR,,0.00,WeatherDisplay:10.37,2013-07-23 14:51:00,
2013-07-23 10:54:00,79.0,70.4,29.90,WSW,248,1.6,1.6,75,0.00,CLR,,0.00,WeatherDisplay:10.37,2013-07-23 14:54:00,
2013-07-23 10:55:00,79.0,70.4,29.90,WSW,248,1.6,1.6,75,0.00,CLR,,0.00,WeatherDisplay:10.37,2013-07-23 14:55:00,
2013-07-23 10:56:00,79.0,70.4,29.90,WSW,248,1.2,1.2,75,0.00,CLR,,0.00,WeatherDisplay:10.37,2013-07-23 14:56:00,
2013-07-23 10:57:00,78.8,70.2,29.90,WNW,292,1.2,1.2,75,0.00,CLR,,0.00,WeatherDisplay:10.37,2013-07-23 14:57:00,
2013-07-23 11:00:00,78.8,70.2,29.90,WNW,292,0.0,0.3,75,0.00,CLR,,0.00,WeatherDisplay:10.37,2013-07-23 15:00:00,
2013-07-23 11:01:00,78.8,70.2,29.90,East,90,0.0,0.3,75,0.00,CLR,,0.00,WeatherDisplay:10.37,2013-07-23 15:01:00,
2013-07-23 11:02:00,78.8,70.2,29.90,East,90,0.0,0.3,75,0.00,CLR,,0.00,WeatherDisplay:10.37,2013-07-23 15:02:00,
2013-07-23 11:05:00,78.6,70.4,29.90,West,270,2.3,2.3,76,0.00,CLR,,0.00,WeatherDisplay:10.37,2013-07-23 15:05:00,
2013-07-23 11:06:00,78.6,70.4,29.90,West,270,2.3,2.3,76,0.00,CLR,,0.00,WeatherDisplay:10.37,2013-07-23 15:06:00,
2013-07-23 11:07:00,78.6,70.4,29.90,SW,225,2.3,2.3,76,0.00,CLR,,0.00,WeatherDisplay:10.37,2013-07-23 15:07:00,
2013-07-23 11:10:00,78.8,70.2,29.90,ESE,112,0.0,0.5,75,0.00,CLR,,0.00,WeatherDisplay:10.37,2013-07-23 15:10:00,
2013-07-23 11:11:00,78.8,70.2,29.90,WSW,248,0.0,0.5,75,0.00,CLR,,0.00,WeatherDisplay:10.37,2013-07-23 15:11:00,
2013-07-23 11:13:00,78.8,70.2,29.90,West,270,1.4,1.4,75,0.00,CLR,,0.00,WeatherDisplay:10.37,2013-07-23 15:13:00,
2013-07-23 11:15:00,78.8,70.2,29.90,West,270,1.2,1.2,75,0.00,CLR,,0.00,WeatherDisplay:10.37,2013-07-23 15:15:00,
2013-07-23 11:16:00,78.8,70.2,29.90,West,270,0.0,0.7,75,0.00,CLR,,0.00,WeatherDisplay:10.37,2013-07-23 15:16:00,
2013-07-23 11:18:00,78.8,70.2,29.90,East,90,0.0,0.6,75,0.00,CLR,,0.00,WeatherDisplay:10.37,2013-07-23 15:18:00,
2013-07-23 11:20:00,79.0,70.4,29.90,SE,135,3.5,3.5,75,0.00,CLR,,0.00,WeatherDisplay:10.37,2013-07-23 15:20:00,
2013-07-23 11:21:00,79.0,70.4,29.90,SE,135,3.5,3.5,75,0.00,CLR,,0.00,WeatherDisplay:10.37,2013-07-23 15:21:00,
2013-07-23 11:23:00,79.0,70.4,29.90,SW,225,4.6,4.6,75,0.00,CLR,,0.00,WeatherDisplay:10.37,2013-07-23 15:23:00,
2013-07-23 11:25:00,79.0,70.4,29.90,WSW,248,4.6,4.6,75,0.00,CLR,,0.00,WeatherDisplay:10.37,2013-07-23 15:25:00,
2013-07-23 11:26:00,79.0,70.4,29.90,West,270,2.3,2.3,75,0.00,CLR,,0.00,WeatherDisplay:10.37,2013-07-23 15:26:00,
2013-07-23 11:27:00,79.0,70.4,29.90,West,270,3.3,3.3,75,0.00,CLR,,0.00,WeatherDisplay:10.37,2013-07-23 15:27:00,
2013-07-23 11:28:00,79.0,70.4,29.90,NW,315,3.5,3.5,75,0.00,CLR,,0.00,WeatherDisplay:10.37,2013-07-23 15:28:00,
2013-07-23 11:30:00,79.2,70.5,29.90,SE,135,3.5,3.5,75,0.00,CLR,,0.00,WeatherDisplay:10.37,2013-07-23 15:30:00,
2013-07-23 11:31:00,79.2,70.5,29.90,SE,135,3.5,3.5,75,0.00,CLR,,0.00,WeatherDisplay:10.37,2013-07-23 15:31:00,
2013-07-23 11:32:00,79.2,70.5,29.90,SE,135,3.5,3.5,75,0.00,CLR,,0.00,WeatherDisplay:10.37,2013-07-23 15:32:00,
2013-07-23 11:33:00,79.3,70.7,29.90,WNW,292,1.2,1.8,75,0.00,CLR,,0.00,WeatherDisplay:10.37,2013-07-23 15:33:00,
2013-07-23 11:35:00,79.7,71.5,29.90,NW,315,0.0,1.3,76,0.00,CLR,,0.00,WeatherDisplay:10.37,2013-07-23 15:35:00,
2013-07-23 11:36:00,79.7,71.5,29.90,WNW,292,0.0,1.2,76,0.00,CLR,,0.00,WeatherDisplay:10.37,2013-07-23 15:36:00,
2013-07-23 11:37:00,79.7,71.5,29.90,WNW,292,2.3,2.3,76,0.00,CLR,,0.00,WeatherDisplay:10.37,2013-07-23 15:37:00,
2013-07-23 11:38:00,79.7,71.1,29.90,ENE,68,2.3,2.3,75,0.00,CLR,,0.00,WeatherDisplay:10.37,2013-07-23 15:38:00,
2013-07-23 11:41:00,80.1,71.8,29.90,WNW,292,1.2,1.2,76,0.00,CLR,,0.00,WeatherDisplay:10.37,2013-07-23 15:41:00,
2013-07-23 11:42:00,80.1,71.8,29.90,WNW,292,1.2,1.2,76,0.00,CLR,,0.00,WeatherDisplay:10.37,2013-07-23 15:42:00,
2013-07-23 11:43:00,80.2,72.0,29.90,SE,135,1.2,1.2,76,0.00,CLR,,0.00,WeatherDisplay:10.37,2013-07-23 15:43:00,
2013-07-23 11:44:00,80.2,72.0,29.90,SE,135,0.0,0.8,76,0.00,CLR,,0.00,WeatherDisplay:10.37,2013-07-23 15:44:00,
2013-07-23 11:46:00,80.4,72.2,29.90,WSW,248,5.8,5.8,76,0.00,CLR,,0.00,WeatherDisplay:10.37,2013-07-23 15:46:00,
2013-07-23 11:47:00,80.2,71.2,29.90,SSE,158,5.8,5.8,74,0.00,CLR,,0.00,WeatherDisplay:10.37,2013-07-23 15:47:00,
2013-07-23 11:48:00,80.2,71.2,29.90,SSE,158,2.3,2.3,74,0.00,CLR,,0.00,WeatherDisplay:10.37,2013-07-23 15:48:00,
2013-07-23 11:49:00,80.1,71.0,29.90,ESE,112,2.3,2.3,74,0.00,CLR,,0.00,WeatherDisplay:10.37,2013-07-23 15:49:00,
2013-07-23 11:51:00,79.7,69.9,29.90,NW,315,4.9,4.9,72,0.00,CLR,,0.00,WeatherDisplay:10.37,2013-07-23 15:51:00,
2013-07-23 11:52:00,79.7,69.9,29.90,NW,315,4.6,4.6,72,0.00,CLR,,0.00,WeatherDisplay:10.37,2013-07-23 15:52:00,
2013-07-23 11:53:00,79.7,70.3,29.90,SE,135,4.6,4.6,73,0.00,CLR,,0.00,WeatherDisplay:10.37,2013-07-23 15:53:00,
2013-07-23 11:54:00,79.7,70.3,29.90,SE,135,3.5,3.5,73,0.00,CLR,,0.00,WeatherDisplay:10.37,2013-07-23 15:54:00,
2013-07-23 11:56:00,79.9,70.4,29.90,WSW,248,2.5,2.5,73,0.00,CLR,,0.00,WeatherDisplay:10.37,2013-07-23 15:56:00,
2013-07-23 11:57:00,79.9,70.8,29.90,NNE,22,2.3,2.3,74,0.00,CLR,,0.00,WeatherDisplay:10.37,2013-07-23 15:57:00,
2013-07-23 11:58:00,80.1,71.0,29.90,West,270,0.0,1.8,74,0.00,CLR,,0.00,WeatherDisplay:10.37,2013-07-23 15:58:00,
2013-07-23 11:59:00,80.1,71.0,29.90,West,270,3.5,3.5,74,0.00,CLR,,0.00,WeatherDisplay:10.37,2013-07-23 15:59:00,
2013-07-23 12:01:00,80.4,71.4,29.90,SE,135,3.5,3.5,74,0.00,CLR,,0.00,WeatherDisplay:10.37,2013-07-23 16:01:00,
2013-07-23 12:02:00,80.4,71.4,29.90,SE,135,0.0,1.4,74,0.00,CLR,,0.00,WeatherDisplay:10.37,2013-07-23 16:02:00,
2013-07-23 12:03:00,80.4,71.4,29.90,ESE,112,7.2,7.2,74,0.00,CLR,,0.00,WeatherDisplay:10.37,2013-07-23 16:03:00,
2013-07-23 12:04:00,80.4,71.4,29.90,WSW,248,6.9,6.9,74,0.00,CLR,,0.00,WeatherDisplay:10.37,2013-07-23 16:04:00,
2013-07-23 12:06:00,80.4,71.4,29.90,WSW,248,6.9,6.9,74,0.00,CLR,,0.00,WeatherDisplay:10.37,2013-07-23 16:06:00,
2013-07-23 12:07:00,80.4,71.4,29.90,WSW,248,6.9,6.9,74,0.00,CLR,,0.00,WeatherDisplay:10.37,2013-07-23 16:07:00,
2013-07-23 12:08:00,80.1,70.2,29.90,West,270,6.9,6.9,72,0.00,CLR,,0.00,WeatherDisplay:10.37,2013-07-23 16:08:00,
2013-07-23 12:09:00,80.1,70.2,29.90,West,270,4.6,4.6,72,0.00,CLR,,0.00,WeatherDisplay:10.37,2013-07-23 16:09:00,
2013-07-23 12:11:00,80.2,70.4,29.90,SW,225,4.6,4.6,72,0.00,CLR,,0.00,WeatherDisplay:10.37,2013-07-23 16:11:00,
2013-07-23 12:12:00,80.2,70.8,29.90,WSW,248,2.3,2.4,73,0.00,CLR,,0.00,WeatherDisplay:10.37,2013-07-23 16:12:00,
2013-07-23 12:14:00,80.2,70.8,29.90,WSW,248,2.3,2.4,73,0.00,CLR,,0.00,WeatherDisplay:10.37,2013-07-23 16:14:00,
2013-07-23 12:17:00,80.2,70.8,29.90,WSW,248,3.5,3.5,73,0.00,CLR,,0.00,WeatherDisplay:10.37,2013-07-23 16:17:00,
2013-07-23 12:18:00,80.2,70.8,29.90,WSW,248,3.5,3.5,73,0.00,CLR,,0.00,WeatherDisplay:10.37,2013-07-23 16:18:00,
2013-07-23 12:19:00,80.1,70.6,29.90,SW,225,0.0,2.0,73,0.00,CLR,,0.00,WeatherDisplay:10.37,2013-07-23 16:19:00,
2013-07-23 12:22:00,80.4,71.0,29.90,WSW,248,0.0,1.7,73,0.00,CLR,,0.00,WeatherDisplay:10.37,2013-07-23 16:22:00,
2013-07-23 12:23:00,80.4,71.0,29.90,ENE,68,0.0,1.7,73,0.00,CLR,,0.00,WeatherDisplay:10.37,2013-07-23 16:23:00,
2013-07-23 12:24:00,80.2,70.8,29.90,SSW,202,4.6,4.6,73,0.00,CLR,,0.00,WeatherDisplay:10.37,2013-07-23 16:24:00,
2013-07-23 12:25:00,80.2,70.8,29.90,SSW,202,4.6,4.6,73,0.00,CLR,,0.00,WeatherDisplay:10.37,2013-07-23 16:25:00,
2013-07-23 12:27:00,80.2,70.8,29.90,ENE,68,3.5,3.5,73,0.00,CLR,,0.00,WeatherDisplay:10.37,2013-07-23 16:27:00,
2013-07-23 12:28:00,80.2,70.8,29.90,ENE,68,1.2,2.0,73,0.00,CLR,,0.00,WeatherDisplay:10.37,2013-07-23 16:28:00,
2013-07-23 12:29:00,80.1,70.2,29.90,ENE,68,1.2,2.1,72,0.00,CLR,,0.00,WeatherDisplay:10.37,2013-07-23 16:29:00,
2013-07-23 12:30:00,80.1,70.2,29.90,SSW,202,1.2,1.7,72,0.00,CLR,,0.00,WeatherDisplay:10.37,2013-07-23 16:30:00,
2013-07-23 12:32:00,80.1,70.2,29.90,SSW,202,1.2,1.7,72,0.00,CLR,,0.00,WeatherDisplay:10.37,2013-07-23 16:32:00,
2013-07-23 12:33:00,79.9,70.0,29.90,SW,225,2.5,2.5,72,0.00,CLR,,0.00,WeatherDisplay:10.37,2013-07-23 16:33:00,
2013-07-23 12:34:00,79.9,70.0,29.90,ENE,68,2.3,2.3,72,0.00,CLR,,0.00,WeatherDisplay:10.37,2013-07-23 16:34:00,
2013-07-23 12:36:00,79.9,70.0,29.90,ENE,68,1.2,1.3,72,0.00,CLR,,0.00,WeatherDisplay:10.37,2013-07-23 16:36:00,
2013-07-23 12:37:00,79.9,70.0,29.90,ENE,68,1.6,1.6,72,0.00,CLR,,0.00,WeatherDisplay:10.37,2013-07-23 16:37:00,
2013-07-23 12:38:00,79.7,69.9,29.90,West,270,2.6,2.6,72,0.00,CLR,,0.00,WeatherDisplay:10.37,2013-07-23 16:38:00,
2013-07-23 12:40:00,79.7,69.9,29.90,West,270,2.3,2.3,72,0.00,CLR,,0.00,WeatherDisplay:10.37,2013-07-23 16:40:00,
2013-07-23 12:41:00,79.9,70.4,29.90,NW,315,2.3,2.3,73,0.00,CLR,,0.00,WeatherDisplay:10.37,2013-07-23 16:41:00,
2013-07-23 12:42:00,79.9,70.4,29.90,NW,315,1.2,1.2,73,0.00,CLR,,0.00,WeatherDisplay:10.37,2013-07-23 16:42:00,
2013-07-23 12:43:00,79.7,69.9,29.90,SSE,158,3.8,3.8,72,0.00,CLR,,0.00,WeatherDisplay:10.37,2013-07-23 16:43:00,
2013-07-23 12:45:00,79.7,69.9,29.90,NW,315,3.5,3.5,72,0.00,CLR,,0.00,WeatherDisplay:10.37,2013-07-23 16:45:00,
2013-07-23 12:46:00,79.7,69.9,29.90,NW,315,1.2,1.4,72,0.00,CLR,,0.00,WeatherDisplay:10.37,2013-07-23 16:46:00,
2013-07-23 12:47:00,79.5,69.7,29.90,WSW,248,1.6,1.7,72,0.00,CLR,,0.00,WeatherDisplay:10.37,2013-07-23 16:47:00,
2013-07-23 12:48:00,79.7,70.3,29.90,West,270,4.6,4.6,73,0.00,CLR,,0.00,WeatherDisplay:10.37,2013-07-23 16:48:00,
2013-07-23 12:49:00,79.7,70.3,29.90,West,270,4.6,4.6,73,0.00,CLR,,0.00,WeatherDisplay:10.37,2013-07-23 16:49:00,
2013-07-23 12:50:00,79.7,70.3,29.90,West,270,4.6,4.6,73,0.00,CLR,,0.00,WeatherDisplay:10.37,2013-07-23 16:50:00,
2013-07-23 12:51:00,79.5,69.7,29.90,WSW,248,4.6,4.6,72,0.00,CLR,,0.00,WeatherDisplay:10.37,2013-07-23 16:51:00,
2013-07-23 12:52:00,79.2,69.4,29.90,NNW,338,4.6,4.6,72,0.00,CLR,,0.00,WeatherDisplay:10.37,2013-07-23 16:52:00,
2013-07-23 12:53:00,79.2,69.4,29.90,NNW,338,2.3,2.3,72,0.00,CLR,,0.00,WeatherDisplay:10.37,2013-07-23 16:53:00,
2013-07-23 12:54:00,79.2,69.4,29.90,West,270,2.3,2.3,72,0.00,CLR,,0.00,WeatherDisplay:10.37,2013-07-23 16:54:00,
2013-07-23 12:55:00,79.2,69.4,29.90,West,270,2.3,2.3,72,0.00,CLR,,0.00,WeatherDisplay:10.37,2013-07-23 16:55:00,
2013-07-23 12:56:00,79.0,69.2,29.90,WNW,292,4.4,4.4,72,0.00,CLR,,0.00,WeatherDisplay:10.37,2013-07-23 16:56:00,
2013-07-23 12:57:00,79.0,69.2,29.90,WNW,292,4.6,4.6,72,0.00,CLR,,0.00,WeatherDisplay:10.37,2013-07-23 16:57:00,
2013-07-23 12:58:00,79.2,69.8,29.90,NNW,338,4.6,4.6,73,0.00,CLR,,0.00,WeatherDisplay:10.37,2013-07-23 16:58:00,
2013-07-23 12:59:00,79.2,69.8,29.90,NNW,338,4.6,4.6,73,0.00,CLR,,0.00,WeatherDisplay:10.37,2013-07-23 16:59:00,
2013-07-23 13:00:00,79.0,69.6,29.90,WSW,248,2.3,2.3,73,0.00,CLR,,0.00,WeatherDisplay:10.37,2013-07-23 17:00:00,
2013-07-23 13:01:00,79.0,69.6,29.90,WSW,248,2.3,2.3,73,0.00,CLR,,0.00,WeatherDisplay:10.37,2013-07-23 17:01:00,
2013-07-23 13:02:00,78.8,69.4,29.90,WSW,248,1.2,1.3,73,0.00,CLR,,0.00,WeatherDisplay:10.37,2013-07-23 17:02:00,
2013-07-23 13:04:00,78.8,69.4,29.90,WSW,248,1.5,1.5,73,0.00,CLR,,0.00,WeatherDisplay:10.37,2013-07-23 17:04:00,
2013-07-23 13:05:00,78.6,69.6,29.90,West,270,4.6,4.6,74,0.00,CLR,,0.00,WeatherDisplay:10.37,2013-07-23 17:05:00,
2013-07-23 13:07:00,78.8,69.8,29.90,SW,225,5.8,5.8,74,0.00,CLR,,0.00,WeatherDisplay:10.37,2013-07-23 17:07:00,
2013-07-23 13:08:00,78.8,69.8,29.90,SW,225,5.8,5.8,74,0.00,CLR,,0.00,WeatherDisplay:10.37,2013-07-23 17:08:00,
2013-07-23 13:09:00,78.8,69.8,29.90,NW,315,5.8,5.8,74,0.00,CLR,,0.00,WeatherDisplay:10.37,2013-07-23 17:09:00,
2013-07-23 13:10:00,78.8,69.8,29.90,NW,315,1.2,1.4,74,0.00,CLR,,0.00,WeatherDisplay:10.37,2013-07-23 17:10:00,
2013-07-23 13:11:00,79.0,70.0,29.90,West,270,1.2,1.3,74,0.00,CLR,,0.00,WeatherDisplay:10.37,2013-07-23 17:11:00,
2013-07-23 13:12:00,79.3,70.7,29.90,SE,135,1.2,1.3,75,0.00,CLR,,0.00,WeatherDisplay:10.37,2013-07-23 17:12:00,
2013-07-23 13:13:00,79.3,70.7,29.90,SE,135,1.2,1.3,75,0.00,CLR,,0.00,WeatherDisplay:10.37,2013-07-23 17:13:00,
2013-07-23 13:14:00,79.3,70.7,29.90,SE,135,2.3,2.3,75,0.00,CLR,,0.00,WeatherDisplay:10.37,2013-07-23 17:14:00,
2013-07-23 13:15:00,79.7,71.1,29.90,NE,45,2.3,2.3,75,0.00,CLR,,0.00,WeatherDisplay:10.37,2013-07-23 17:15:00,
2013-07-23 13:16:00,79.9,71.6,29.90,WSW,248,0.0,1.2,76,0.00,CLR,,0.00,WeatherDisplay:10.37,2013-07-23 17:16:00,
2013-07-23 13:17:00,79.9,71.6,29.90,WSW,248,3.5,3.5,76,0.00,CLR,,0.00,WeatherDisplay:10.37,2013-07-23 17:17:00,
2013-07-23 13:18:00,79.9,71.6,29.90,WSW,248,3.5,3.5,76,0.00,CLR,,0.00,WeatherDisplay:10.37,2013-07-23 17:18:00,
2013-07-23 13:19:00,80.2,72.0,29.90,ESE,112,3.5,3.5,76,0.00,CLR,,0.00,WeatherDisplay:10.37,2013-07-23 17:19:00,
2013-07-23 13:20:00,80.2,72.0,29.90,ESE,112,2.3,2.3,76,0.00,CLR,,0.00,WeatherDisplay:10.37,2013-07-23 17:20:00,
2013-07-23 13:21:00,80.8,72.5,29.88,ENE,68,2.3,2.3,76,0.00,CLR,,0.00,WeatherDisplay:10.37,2013-07-23 17:21:00,
2013-07-23 13:22:00,81.0,72.3,29.88,WSW,248,2.3,2.3,75,0.00,CLR,,0.00,WeatherDisplay:10.37,2013-07-23 17:22:00,
2013-07-23 13:23:00,81.0,72.3,29.88,WSW,248,3.5,3.5,75,0.00,CLR,,0.00,WeatherDisplay:10.37,2013-07-23 17:23:00,
2013-07-23 13:24:00,81.0,72.3,29.88,NNW,338,3.5,3.5,75,0.00,CLR,,0.00,WeatherDisplay:10.37,2013-07-23 17:24:00,
2013-07-23 13:25:00,81.0,72.3,29.88,NNW,338,3.5,3.5,75,0.00,CLR,,0.00,WeatherDisplay:10.37,2013-07-23 17:25:00,
2013-07-23 13:26:00,81.0,72.3,29.88,NNW,338,1.2,1.3,75,0.00,CLR,,0.00,WeatherDisplay:10.37,2013-07-23 17:26:00,
2013-07-23 13:27:00,81.1,72.5,29.88,NNE,22,1.2,1.2,75,0.00,CLR,,0.00,WeatherDisplay:10.37,2013-07-23 17:27:00,
2013-07-23 13:28:00,81.1,72.1,29.88,NNW,338,1.2,1.3,74,0.00,CLR,,0.00,WeatherDisplay:10.37,2013-07-23 17:28:00,
2013-07-23 13:29:00,81.1,72.1,29.88,NNW,338,1.2,1.3,74,0.00,CLR,,0.00,WeatherDisplay:10.37,2013-07-23 17:29:00,
2013-07-23 13:30:00,81.1,72.1,29.88,NNW,338,0.0,1.3,74,0.00,CLR,,0.00,WeatherDisplay:10.37,2013-07-23 17:30:00,
2013-07-23 13:31:00,81.0,71.5,29.88,NW,315,1.2,1.2,73,0.00,CLR,,0.00,WeatherDisplay:10.37,2013-07-23 17:31:00,
2013-07-23 13:33:00,80.8,71.3,29.88,ESE,112,1.2,1.2,73,0.00,CLR,,0.00,WeatherDisplay:10.37,2013-07-23 17:33:00,
2013-07-23 13:34:00,81.0,71.5,29.88,ENE,68,0.0,0.6,73,0.00,CLR,,0.00,WeatherDisplay:10.37,2013-07-23 17:34:00,
2013-07-23 13:35:00,81.0,71.5,29.88,ENE,68,2.3,2.3,73,0.00,CLR,,0.00,WeatherDisplay:10.37,2013-07-23 17:35:00,
2013-07-23 13:36:00,81.1,72.1,29.88,ESE,112,2.3,2.3,74,0.00,CLR,,0.00,WeatherDisplay:10.37,2013-07-23 17:36:00,
2013-07-23 13:38:00,81.1,72.1,29.88,ESE,112,2.3,2.3,74,0.00,CLR,,0.00,WeatherDisplay:10.37,2013-07-23 17:38:00,
2013-07-23 13:39:00,81.3,72.2,29.88,West,270,3.5,3.5,74,0.00,CLR,,0.00,WeatherDisplay:10.37,2013-07-23 17:39:00,
2013-07-23 13:40:00,81.3,72.2,29.88,West,270,3.5,3.5,74,0.00,CLR,,0.00,WeatherDisplay:10.37,2013-07-23 17:40:00,
2013-07-23 13:41:00,81.3,72.2,29.86,WNW,292,3.5,3.5,74,0.00,CLR,,0.00,WeatherDisplay:10.37,2013-07-23 17:41:00,
2013-07-23 13:43:00,81.3,72.2,29.86,WNW,292,1.2,1.2,74,0.00,CLR,,0.00,WeatherDisplay:10.37,2013-07-23 17:43:00,
2013-07-23 13:44:00,81.3,72.2,29.86,WNW,292,1.2,1.2,74,0.00,CLR,,0.00,WeatherDisplay:10.37,2013-07-23 17:44:00,
2013-07-23 13:45:00,81.3,72.2,29.86,WNW,292,1.2,1.2,74,0.00,CLR,,0.00,WeatherDisplay:10.37,2013-07-23 17:45:00,
2013-07-23 13:46:00,81.3,72.2,29.86,WNW,292,1.2,1.2,74,0.00,CLR,,0.00,WeatherDisplay:10.37,2013-07-23 17:46:00,
2013-07-23 13:47:00,81.3,72.2,29.86,WNW,292,1.2,1.2,74,0.00,CLR,,0.00,WeatherDisplay:10.37,2013-07-23 17:47:00,
2013-07-23 13:48:00,81.3,72.2,29.86,WNW,292,1.2,1.2,74,0.00,CLR,,0.00,WeatherDisplay:10.37,2013-07-23 17:48:00,
2013-07-23 13:50:00,81.7,72.2,29.86,ESE,112,1.2,1.2,73,0.00,CLR,,0.00,WeatherDisplay:10.37,2013-07-23 17:50:00,
2013-07-23 13:53:00,81.5,71.2,29.86,SE,135,1.2,1.2,71,0.00,CLR,,0.00,WeatherDisplay:10.37,2013-07-23 17:53:00,
2013-07-23 13:56:00,81.5,70.8,29.86,SE,135,4.6,4.6,70,0.00,CLR,,0.00,WeatherDisplay:10.37,2013-07-23 17:56:00,
2013-07-23 13:58:00,81.9,71.1,29.86,NNW,338,3.0,3.0,70,0.00,CLR,,0.00,WeatherDisplay:10.37,2013-07-23 17:58:00,
2013-07-23 14:00:00,82.2,71.5,29.85,NNE,22,3.5,3.5,70,0.00,CLR,,0.00,WeatherDisplay:10.37,2013-07-23 18:00:00,
2013-07-23 14:02:00,82.4,71.6,29.85,WSW,248,3.5,3.5,70,0.00,CLR,,0.00,WeatherDisplay:10.37,2013-07-23 18:02:00,
2013-07-23 14:03:00,82.4,71.6,29.85,WSW,248,3.5,3.5,70,0.00,CLR,,0.00,WeatherDisplay:10.37,2013-07-23 18:03:00,
2013-07-23 14:07:00,82.9,72.1,29.85,ENE,68,2.3,2.3,70,0.00,CLR,,0.00,WeatherDisplay:10.37,2013-07-23 18:07:00,
2013-07-23 14:08:00,82.9,72.1,29.85,ENE,68,1.6,1.6,70,0.00,CLR,,0.00,WeatherDisplay:10.37,2013-07-23 18:08:00,
2013-07-23 14:09:00,83.1,72.3,29.85,NE,45,2.3,2.3,70,0.00,CLR,,0.00,WeatherDisplay:10.37,2013-07-23 18:09:00,
2013-07-23 14:12:00,83.1,71.9,29.85,SSW,202,3.5,3.5,69,0.00,CLR,,0.00,WeatherDisplay:10.37,2013-07-23 18:12:00,
2013-07-23 14:13:00,83.1,71.9,29.85,SSW,202,3.5,3.5,69,0.00,CLR,,0.00,WeatherDisplay:10.37,2013-07-23 18:13:00,
2013-07-23 14:14:00,83.3,72.1,29.85,West,270,3.5,3.5,69,0.00,CLR,,0.00,WeatherDisplay:10.37,2013-07-23 18:14:00,
2013-07-23 14:15:00,83.3,72.1,29.85,West,270,3.5,3.5,69,0.00,CLR,,0.00,WeatherDisplay:10.37,2013-07-23 18:15:00,
2013-07-23 14:18:00,83.3,71.2,29.85,WNW,292,2.3,2.3,67,0.00,CLR,,0.00,WeatherDisplay:10.37,2013-07-23 18:18:00,
2013-07-23 14:20:00,83.1,70.6,29.85,WSW,248,1.2,1.7,66,0.00,CLR,,0.00,WeatherDisplay:10.37,2013-07-23 18:20:00,
2013-07-23 14:23:00,83.3,71.2,29.85,West,270,3.5,3.5,67,0.00,CLR,,0.00,WeatherDisplay:10.37,2013-07-23 18:23:00,
2013-07-23 14:24:00,83.3,71.2,29.85,West,270,3.5,3.5,67,0.00,CLR,,0.00,WeatherDisplay:10.37,2013-07-23 18:24:00,
2013-07-23 14:26:00,83.5,71.8,29.85,North,0,2.3,2.3,68,0.00,CLR,,0.00,WeatherDisplay:10.37,2013-07-23 18:26:00,
2013-07-23 14:27:00,83.7,72.0,29.85,WNW,292,2.3,2.3,68,0.00,CLR,,0.00,WeatherDisplay:10.37,2013-07-23 18:27:00,
2013-07-23 14:29:00,83.7,72.0,29.85,WSW,248,1.2,1.3,68,0.00,CLR,,0.00,WeatherDisplay:10.37,2013-07-23 18:29:00,
2013-07-23 14:31:00,83.8,72.1,29.85,WNW,292,1.2,1.2,68,0.00,CLR,,0.00,WeatherDisplay:10.37,2013-07-23 18:31:00,
2013-07-23 14:33:00,84.0,72.3,29.85,SW,225,2.3,2.3,68,0.00,CLR,,0.00,WeatherDisplay:10.37,2013-07-23 18:33:00,
2013-07-23 14:35:00,83.8,71.7,29.85,WSW,248,2.3,2.3,67,0.00,CLR,,0.00,WeatherDisplay:10.37,2013-07-23 18:35:00,
2013-07-23 14:37:00,83.8,71.3,29.85,West,270,2.3,2.3,66,0.00,CLR,,0.00,WeatherDisplay:10.37,2013-07-23 18:37:00,
2013-07-23 14:38:00,84.0,71.4,29.85,NE,45,2.8,2.8,66,0.00,CLR,,0.00,WeatherDisplay:10.37,2013-07-23 18:38:00,
2013-07-23 14:40:00,84.0,71.4,29.84,ESE,112,2.3,2.3,66,0.00,CLR,,0.00,WeatherDisplay:10.37,2013-07-23 18:40:00,
2013-07-23 14:43:00,83.8,70.8,29.84,SSW,202,2.3,2.3,65,0.00,CLR,,0.00,WeatherDisplay:10.37,2013-07-23 18:43:00,
2013-07-23 14:44:00,83.7,70.2,29.84,SW,225,2.3,2.3,64,0.00,CLR,,0.00,WeatherDisplay:10.37,2013-07-23 18:44:00,
2013-07-23 14:46:00,83.7,70.2,29.84,SW,225,4.6,4.6,64,0.00,CLR,,0.00,WeatherDisplay:10.37,2013-07-23 18:46:00,
2013-07-23 14:48:00,83.8,69.9,29.84,ESE,112,2.3,2.3,63,0.00,CLR,,0.00,WeatherDisplay:10.37,2013-07-23 18:48:00,
2013-07-23 14:49:00,83.8,69.9,29.84,ESE,112,3.5,3.5,63,0.00,CLR,,0.00,WeatherDisplay:10.37,2013-07-23 18:49:00,
2013-07-23 14:50:00,83.8,69.9,29.84,ESE,112,3.5,3.5,63,0.00,CLR,,0.00,WeatherDisplay:10.37,2013-07-23 18:50:00,
2013-07-23 14:51:00,83.8,70.8,29.84,ENE,68,3.5,3.5,65,0.00,CLR,,0.00,WeatherDisplay:10.37,2013-07-23 18:51:00,
2013-07-23 14:53:00,83.8,70.8,29.84,NW,315,1.2,1.6,65,0.00,CLR,,0.00,WeatherDisplay:10.37,2013-07-23 18:53:00,
2013-07-23 14:54:00,84.0,71.4,29.84,NE,45,1.2,1.5,66,0.00,CLR,,0.00,WeatherDisplay:10.37,2013-07-23 18:54:00,
2013-07-23 14:55:00,84.0,71.4,29.84,NE,45,1.2,1.5,66,0.00,CLR,,0.00,WeatherDisplay:10.37,2013-07-23 18:55:00,
2013-07-23 14:57:00,83.8,70.8,29.84,ESE,112,2.3,2.3,65,0.00,CLR,,0.00,WeatherDisplay:10.37,2013-07-23 18:57:00,
2013-07-23 15:00:00,83.7,70.2,29.84,South,180,2.3,2.3,64,0.00,CLR,,0.00,WeatherDisplay:10.37,2013-07-23 19:00:00,
2013-07-23 15:01:00,83.8,70.8,29.83,West,270,2.3,2.3,65,0.00,CLR,,0.00,WeatherDisplay:10.37,2013-07-23 19:01:00,
2013-07-23 15:02:00,83.8,70.8,29.83,NE,45,1.6,1.6,65,0.00,CLR,,0.00,WeatherDisplay:10.37,2013-07-23 19:02:00,
2013-07-23 15:06:00,83.8,70.8,29.83,NW,315,2.3,2.3,65,0.00,CLR,,0.00,WeatherDisplay:10.37,2013-07-23 19:06:00,
2013-07-23 15:07:00,84.0,71.4,29.83,WSW,248,2.3,2.3,66,0.00,CLR,,0.00,WeatherDisplay:10.37,2013-07-23 19:07:00,
2013-07-23 15:08:00,84.0,71.4,29.83,WSW,248,2.3,2.3,66,0.00,CLR,,0.00,WeatherDisplay:10.37,2013-07-23 19:08:00,
2013-07-23 15:12:00,84.2,71.2,29.83,WNW,292,1.2,1.2,65,0.00,CLR,,0.00,WeatherDisplay:10.37,2013-07-23 19:12:00,
2013-07-23 15:13:00,84.2,71.2,29.83,WNW,292,1.2,1.2,65,0.00,CLR,,0.00,WeatherDisplay:10.37,2013-07-23 19:13:00,
2013-07-23 15:18:00,84.0,70.5,29.83,SW,225,1.5,1.5,64,0.00,CLR,,0.00,WeatherDisplay:10.37,2013-07-23 19:18:00,
2013-07-23 15:19:00,84.0,70.5,29.83,SW,225,1.2,1.2,64,0.00,CLR,,0.00,WeatherDisplay:10.37,2013-07-23 19:19:00,
2013-07-23 15:20:00,84.0,70.5,29.83,SW,225,1.2,1.2,64,0.00,CLR,,0.00,WeatherDisplay:10.37,2013-07-23 19:20:00,
2013-07-23 15:24:00,84.2,70.7,29.83,NE,45,1.2,1.3,64,0.00,CLR,,0.00,WeatherDisplay:10.37,2013-07-23 19:24:00,
2013-07-23 15:26:00,84.2,70.7,29.83,NE,45,0.0,1.3,64,0.00,CLR,,0.00,WeatherDisplay:10.37,2013-07-23 19:26:00,
2013-07-23 15:30:00,84.6,71.5,29.83,SE,135,1.2,1.2,65,0.00,CLR,,0.00,WeatherDisplay:10.37,2013-07-23 19:30:00,
2013-07-23 15:31:00,84.6,71.5,29.83,SE,135,1.2,1.2,65,0.00,CLR,,0.00,WeatherDisplay:10.37,2013-07-23 19:31:00,
2013-07-23 15:35:00,84.2,70.2,29.83,ENE,68,4.6,4.6,63,0.00,CLR,,0.00,WeatherDisplay:10.37,2013-07-23 19:35:00,
2013-07-23 15:36:00,84.2,70.2,29.83,ENE,68,2.3,2.3,63,0.00,CLR,,0.00,WeatherDisplay:10.37,2013-07-23 19:36:00,
2013-07-23 15:37:00,84.4,70.4,29.83,SSW,202,2.3,2.3,63,0.00,CLR,,0.00,WeatherDisplay:10.37,2013-07-23 19:37:00,
2013-07-23 15:41:00,84.2,70.2,29.83,ENE,68,3.5,3.5,63,0.00,CLR,,0.00,WeatherDisplay:10.37,2013-07-23 19:41:00,
2013-07-23 15:42:00,84.4,70.4,29.83,South,180,2.3,2.3,63,0.00,CLR,,0.00,WeatherDisplay:10.37,2013-07-23 19:42:00,
2013-07-23 15:47:00,84.0,69.6,29.83,ESE,112,2.3,2.3,62,0.00,CLR,,0.00,WeatherDisplay:10.37,2013-07-23 19:47:00,
2013-07-23 15:48:00,84.0,69.6,29.83,ESE,112,2.3,2.3,62,0.00,CLR,,0.00,WeatherDisplay:10.37,2013-07-23 19:48:00,
2013-07-23 15:52:00,84.2,70.2,29.83,West,270,1.2,1.2,63,0.00,CLR,,0.00,WeatherDisplay:10.37,2013-07-23 19:52:00,
2013-07-23 15:53:00,84.2,70.2,29.83,ENE,68,1.2,1.2,63,0.00,CLR,,0.00,WeatherDisplay:10.37,2013-07-23 19:53:00,
2013-07-23 15:57:00,84.4,70.9,29.83,WNW,292,3.6,3.6,64,0.00,CLR,,0.00,WeatherDisplay:10.37,2013-07-23 19:57:00,
2013-07-23 15:59:00,84.4,70.9,29.83,SW,225,3.5,3.5,64,0.00,CLR,,0.00,WeatherDisplay:10.37,2013-07-23 19:59:00,
2013-07-23 16:00:00,84.4,70.9,29.81,West,270,0.0,1.0,64,0.00,CLR,,0.00,WeatherDisplay:10.37,2013-07-23 20:00:00,
2013-07-23 16:02:00,84.6,71.0,29.81,NW,315,2.3,2.3,64,0.00,CLR,,0.00,WeatherDisplay:10.37,2013-07-23 20:02:00,
2013-07-23 16:03:00,84.6,71.0,29.81,NW,315,2.3,2.3,64,0.00,CLR,,0.00,WeatherDisplay:10.37,2013-07-23 20:03:00,
2013-07-23 16:05:00,84.6,71.0,29.81,NNE,22,3.5,3.5,64,0.00,CLR,,0.00,WeatherDisplay:10.37,2013-07-23 20:05:00,
2013-07-23 16:07:00,84.6,70.6,29.81,SSW,202,3.5,3.5,63,0.00,CLR,,0.00,WeatherDisplay:10.37,2013-07-23 20:07:00,
2013-07-23 16:09:00,84.4,70.4,29.81,NNE,22,2.3,2.3,63,0.00,CLR,,0.00,WeatherDisplay:10.37,2013-07-23 20:09:00,
2013-07-23 16:11:00,84.4,70.4,29.81,SW,225,5.2,5.2,63,0.00,CLR,,0.00,WeatherDisplay:10.37,2013-07-23 20:11:00,
2013-07-23 16:12:00,84.4,70.4,29.81,SW,225,4.6,4.6,63,0.00,CLR,,0.00,WeatherDisplay:10.37,2013-07-23 20:12:00,
2013-07-23 16:13:00,84.2,69.3,29.81,NE,45,4.6,4.6,61,0.00,CLR,,0.00,WeatherDisplay:10.37,2013-07-23 20:13:00,
2013-07-23 16:14:00,84.2,69.3,29.81,NE,45,1.2,1.7,61,0.00,CLR,,0.00,WeatherDisplay:10.37,2013-07-23 20:14:00,
2013-07-23 16:16:00,84.6,70.1,29.81,SSW,202,1.2,1.5,62,0.00,CLR,,0.00,WeatherDisplay:10.37,2013-07-23 20:16:00,
2013-07-23 16:18:00,84.6,70.1,29.81,SSW,202,2.3,2.3,62,0.00,CLR,,0.00,WeatherDisplay:10.37,2013-07-23 20:18:00,
2013-07-23 16:19:00,84.7,70.7,29.81,ESE,112,4.6,4.6,63,0.00,CLR,,0.00,WeatherDisplay:10.37,2013-07-23 20:19:00,
2013-07-23 16:22:00,84.6,70.1,29.81,South,180,4.6,4.6,62,0.00,CLR,,0.00,WeatherDisplay:10.37,2013-07-23 20:22:00,
2013-07-23 16:23:00,84.6,70.1,29.81,West,270,3.5,3.5,62,0.00,CLR,,0.00,WeatherDisplay:10.37,2013-07-23 20:23:00,
2013-07-23 16:24:00,84.6,70.1,29.81,West,270,3.5,3.5,62,0.00,CLR,,0.00,WeatherDisplay:10.37,2013-07-23 20:24:00,
2013-07-23 16:25:00,84.6,69.6,29.81,NW,315,3.5,3.5,61,0.00,CLR,,0.00,WeatherDisplay:10.37,2013-07-23 20:25:00,
2013-07-23 16:29:00,84.7,70.3,29.81,SW,225,3.5,3.5,62,0.00,CLR,,0.00,WeatherDisplay:10.37,2013-07-23 20:29:00,
2013-07-23 16:30:00,84.6,69.6,29.81,NE,45,1.2,2.0,61,0.00,CLR,,0.00,WeatherDisplay:10.37,2013-07-23 20:30:00,
2013-07-23 16:34:00,84.6,69.6,29.81,ESE,112,2.3,2.3,61,0.00,CLR,,0.00,WeatherDisplay:10.37,2013-07-23 20:34:00,
2013-07-23 16:36:00,84.6,69.6,29.81,NE,45,1.2,1.4,61,0.00,CLR,,0.00,WeatherDisplay:10.37,2013-07-23 20:36:00,
2013-07-23 16:40:00,84.6,69.1,29.79,SW,225,2.0,2.0,60,0.00,CLR,,0.00,WeatherDisplay:10.37,2013-07-23 20:40:00,
2013-07-23 16:41:00,84.6,69.1,29.79,SW,225,2.3,2.3,60,0.00,CLR,,0.00,WeatherDisplay:10.37,2013-07-23 20:41:00,
2013-07-23 16:43:00,84.4,69.0,29.79,WSW,248,2.3,2.3,60,0.00,CLR,,0.00,WeatherDisplay:10.37,2013-07-23 20:43:00,
2013-07-23 16:47:00,84.6,69.1,29.79,WSW,248,2.3,2.3,60,0.00,CLR,,0.00,WeatherDisplay:10.37,2013-07-23 20:47:00,
2013-07-23 16:48:00,84.6,69.1,29.79,WSW,248,2.3,2.3,60,0.00,CLR,,0.00,WeatherDisplay:10.37,2013-07-23 20:48:00,
2013-07-23 16:52:00,84.2,68.3,29.79,SW,225,4.6,4.6,59,0.00,CLR,,0.00,WeatherDisplay:10.37,2013-07-23 20:52:00,
2013-07-23 16:53:00,84.2,68.3,29.79,SW,225,4.6,4.6,59,0.00,CLR,,0.00,WeatherDisplay:10.37,2013-07-23 20:53:00,
2013-07-23 16:57:00,84.2,68.8,29.79,SE,135,2.3,2.3,60,0.00,CLR,,0.00,WeatherDisplay:10.37,2013-07-23 20:57:00,
2013-07-23 16:59:00,84.2,68.8,29.79,WSW,248,3.5,3.5,60,0.00,CLR,,0.00,WeatherDisplay:10.37,2013-07-23 20:59:00,
2013-07-23 17:01:00,84.0,68.1,29.79,SSW,202,3.5,3.5,59,0.00,CLR,,0.00,WeatherDisplay:10.37,2013-07-23 21:01:00,
2013-07-23 17:02:00,83.8,68.0,29.79,West,270,3.5,3.5,59,0.00,CLR,,0.00,WeatherDisplay:10.37,2013-07-23 21:02:00,
2013-07-23 17:04:00,84.0,68.6,29.79,SW,225,2.3,2.3,60,0.00,CLR,,0.00,WeatherDisplay:10.37,2013-07-23 21:04:00,
2013-07-23 17:05:00,84.0,68.6,29.79,SW,225,2.3,2.3,60,0.00,CLR,,0.00,WeatherDisplay:10.37,2013-07-23 21:05:00,
2013-07-23 17:06:00,84.0,68.6,29.79,WNW,292,1.2,1.3,60,0.00,CLR,,0.00,WeatherDisplay:10.37,2013-07-23 21:06:00,
2013-07-23 17:07:00,84.0,68.6,29.79,WNW,292,3.5,3.5,60,0.00,CLR,,0.00,WeatherDisplay:10.37,2013-07-23 21:07:00,
2013-07-23 17:10:00,84.0,68.6,29.79,SSW,202,2.3,2.3,60,0.00,CLR,,0.00,WeatherDisplay:10.37,2013-07-23 21:10:00,
2013-07-23 17:11:00,84.0,68.6,29.79,SSW,202,2.3,2.3,60,0.00,CLR,,0.00,WeatherDisplay:10.37,2013-07-23 21:11:00,
2013-07-23 17:13:00,84.0,68.6,29.79,SSE,158,0.0,0.9,60,0.00,CLR,,0.00,WeatherDisplay:10.37,2013-07-23 21:13:00,
2013-07-23 17:15:00,83.8,68.5,29.79,SW,225,3.5,3.5,60,0.00,CLR,,0.00,WeatherDisplay:10.37,2013-07-23 21:15:00,
2013-07-23 17:16:00,83.8,68.5,29.79,SSE,158,3.5,3.5,60,0.00,CLR,,0.00,WeatherDisplay:10.37,2013-07-23 21:16:00,
2013-07-23 17:18:00,83.8,68.5,29.79,WSW,248,2.3,2.3,60,0.00,CLR,,0.00,WeatherDisplay:10.37,2013-07-23 21:18:00,
2013-07-23 17:21:00,84.0,69.1,29.78,NNE,22,3.5,3.5,61,0.00,CLR,,0.00,WeatherDisplay:10.37,2013-07-23 21:21:00,
2013-07-23 17:22:00,84.0,69.1,29.78,NNE,22,2.3,2.3,61,0.00,CLR,,0.00,WeatherDisplay:10.37,2013-07-23 21:22:00,
2013-07-23 17:23:00,84.0,69.1,29.78,ENE,68,2.3,2.3,61,0.00,CLR,,0.00,WeatherDisplay:10.37,2013-07-23 21:23:00,
2013-07-23 17:26:00,83.7,68.3,29.78,SW,225,2.3,2.3,60,0.00,CLR,,0.00,WeatherDisplay:10.37,2013-07-23 21:26:00,
2013-07-23 17:27:00,83.7,68.3,29.78,SW,225,2.3,2.3,60,0.00,CLR,,0.00,WeatherDisplay:10.37,2013-07-23 21:27:00,
2013-07-23 17:31:00,83.8,69.0,29.78,North,0,2.9,2.9,61,0.00,CLR,,0.00,WeatherDisplay:10.37,2013-07-23 21:31:00,
2013-07-23 17:32:00,83.7,68.3,29.78,NNE,22,2.3,2.3,60,0.00,CLR,,0.00,WeatherDisplay:10.37,2013-07-23 21:32:00,
2013-07-23 17:36:00,83.8,69.0,29.78,ENE,68,1.2,1.2,61,0.00,CLR,,0.00,WeatherDisplay:10.37,2013-07-23 21:36:00,
2013-07-23 17:37:00,83.8,69.0,29.78,WSW,248,2.3,2.3,61,0.00,CLR,,0.00,WeatherDisplay:10.37,2013-07-23 21:37:00,
2013-07-23 17:38:00,84.0,69.6,29.78,NNW,338,2.6,2.6,62,0.00,CLR,,0.00,WeatherDisplay:10.37,2013-07-23 21:38:00,
2013-07-23 17:39:00,84.0,69.6,29.78,NNW,338,2.6,2.6,62,0.00,CLR,,0.00,WeatherDisplay:10.37,2013-07-23 21:39:00,
2013-07-23 17:41:00,84.0,69.6,29.78,WSW,248,2.3,2.3,62,0.00,CLR,,0.00,WeatherDisplay:10.37,2013-07-23 21:41:00,
2013-07-23 17:43:00,84.0,69.6,29.78,NNE,22,4.6,4.6,62,0.00,CLR,,0.00,WeatherDisplay:10.37,2013-07-23 21:43:00,
2013-07-23 17:44:00,84.0,69.6,29.78,NNE,22,4.6,4.6,62,0.00,CLR,,0.00,WeatherDisplay:10.37,2013-07-23 21:44:00,
2013-07-23 17:46:00,83.8,69.0,29.78,North,0,3.5,3.5,61,0.00,CLR,,0.00,WeatherDisplay:10.37,2013-07-23 21:46:00,
2013-07-23 17:49:00,83.7,68.8,29.78,WNW,292,2.3,2.3,61,0.00,CLR,,0.00,WeatherDisplay:10.37,2013-07-23 21:49:00,
2013-07-23 17:50:00,83.7,68.8,29.78,WNW,292,2.3,2.3,61,0.00,CLR,,0.00,WeatherDisplay:10.37,2013-07-23 21:50:00,
2013-07-23 17:51:00,83.7,68.8,29.78,WSW,248,2.3,2.3,61,0.00,CLR,,0.00,WeatherDisplay:10.37,2013-07-23 21:51:00,
2013-07-23 17:54:00,83.5,68.6,29.78,NW,315,0.0,1.3,61,0.00,CLR,,0.00,WeatherDisplay:10.37,2013-07-23 21:54:00,
2013-07-23 17:55:00,83.5,68.6,29.78,West,270,2.3,2.3,61,0.00,CLR,,0.00,WeatherDisplay:10.37,2013-07-23 21:55:00,
2013-07-23 17:57:00,83.5,68.6,29.78,East,90,2.3,2.3,61,0.00,CLR,,0.00,WeatherDisplay:10.37,2013-07-23 21:57:00,
2013-07-23 17:59:00,83.1,67.8,29.78,ESE,112,2.3,2.3,60,0.00,CLR,,0.00,WeatherDisplay:10.37,2013-07-23 21:59:00,
2013-07-23 18:00:00,83.1,67.8,29.77,WSW,248,2.3,2.3,60,0.00,CLR,,0.00,WeatherDisplay:10.37,2013-07-23 22:00:00,
2013-07-23 18:02:00,83.3,68.4,29.77,SW,225,2.3,2.3,61,0.00,CLR,,0.00,WeatherDisplay:10.37,2013-07-23 22:02:00,
2013-07-23 18:04:00,83.3,68.4,29.77,WNW,292,1.6,1.6,61,0.00,CLR,,0.00,WeatherDisplay:10.37,2013-07-23 22:04:00,
2013-07-23 18:06:00,83.3,68.4,29.77,WNW,292,1.2,1.2,61,0.00,CLR,,0.00,WeatherDisplay:10.37,2013-07-23 22:06:00,
2013-07-23 18:09:00,83.3,68.9,29.77,West,270,2.3,2.3,62,0.00,CLR,,0.00,WeatherDisplay:10.37,2013-07-23 22:09:00,
2013-07-23 18:11:00,83.3,68.9,29.77,WSW,248,2.3,2.3,62,0.00,CLR,,0.00,WeatherDisplay:10.37,2013-07-23 22:11:00,
2013-07-23 18:13:00,83.1,68.7,29.77,WSW,248,2.3,2.3,62,0.00,CLR,,0.00,WeatherDisplay:10.37,2013-07-23 22:13:00,
2013-07-23 18:15:00,82.9,68.1,29.77,NNE,22,2.3,2.3,61,0.00,CLR,,0.00,WeatherDisplay:10.37,2013-07-23 22:15:00,
2013-07-23 18:16:00,82.9,68.1,29.77,NNE,22,2.3,2.3,61,0.00,CLR,,0.00,WeatherDisplay:10.37,2013-07-23 22:16:00,
2013-07-23 18:18:00,82.9,68.6,29.77,NNE,22,2.3,2.3,62,0.00,CLR,,0.00,WeatherDisplay:10.37,2013-07-23 22:18:00,
2013-07-23 18:19:00,82.9,68.6,29.77,NNE,22,2.3,2.3,62,0.00,CLR,,0.00,WeatherDisplay:10.37,2013-07-23 22:19:00,
2013-07-23 18:20:00,82.9,68.6,29.76,ESE,112,1.7,1.7,62,0.00,CLR,,0.00,WeatherDisplay:10.37,2013-07-23 22:20:00,
2013-07-23 18:22:00,82.9,68.6,29.76,ESE,112,2.3,2.3,62,0.00,CLR,,0.00,WeatherDisplay:10.37,2013-07-23 22:22:00,
2013-07-23 18:24:00,82.8,68.4,29.76,East,90,2.3,2.3,62,0.00,CLR,,0.00,WeatherDisplay:10.37,2013-07-23 22:24:00,
2013-07-23 18:26:00,82.8,68.4,29.76,West,270,3.5,3.5,62,0.00,CLR,,0.00,WeatherDisplay:10.37,2013-07-23 22:26:00,
2013-07-23 18:28:00,82.6,68.2,29.76,West,270,1.6,1.6,62,0.00,CLR,,0.00,WeatherDisplay:10.37,2013-07-23 22:28:00,
2013-07-23 18:29:00,82.6,68.2,29.76,WSW,248,1.2,1.2,62,0.00,CLR,,0.00,WeatherDisplay:10.37,2013-07-23 22:29:00,
2013-07-23 18:30:00,82.6,68.2,29.76,SE,135,1.2,1.2,62,0.00,CLR,,0.00,WeatherDisplay:10.37,2013-07-23 22:30:00,
2013-07-23 18:31:00,82.6,68.2,29.76,SE,135,1.6,1.6,62,0.00,CLR,,0.00,WeatherDisplay:10.37,2013-07-23 22:31:00,
2013-07-23 18:33:00,82.4,68.1,29.76,NNE,22,1.2,1.2,62,0.00,CLR,,0.00,WeatherDisplay:10.37,2013-07-23 22:33:00,
2013-07-23 18:35:00,82.4,68.5,29.76,NNE,22,1.2,1.2,63,0.00,CLR,,0.00,WeatherDisplay:10.37,2013-07-23 22:35:00,
2013-07-23 18:37:00,82.4,68.5,29.76,NW,315,1.2,1.2,63,0.00,CLR,,0.00,WeatherDisplay:10.37,2013-07-23 22:37:00,
2013-07-23 18:39:00,82.4,68.5,29.76,NNE,22,0.0,0.6,63,0.00,CLR,,0.00,WeatherDisplay:10.37,2013-07-23 22:39:00,
2013-07-23 18:40:00,82.4,68.5,29.76,NNE,22,0.0,0.6,63,0.00,CLR,,0.00,WeatherDisplay:10.37,2013-07-23 22:40:00,
2013-07-23 18:43:00,82.2,68.4,29.76,NW,315,2.3,2.3,63,0.00,CLR,,0.00,WeatherDisplay:10.37,2013-07-23 22:43:00,
2013-07-23 18:44:00,82.2,68.4,29.76,NE,45,2.3,2.3,63,0.00,CLR,,0.00,WeatherDisplay:10.37,2013-07-23 22:44:00,
2013-07-23 18:45:00,82.2,68.4,29.76,NE,45,2.3,2.3,63,0.00,CLR,,0.00,WeatherDisplay:10.37,2013-07-23 22:45:00,
2013-07-23 18:47:00,82.2,68.8,29.76,East,90,0.0,0.3,64,0.00,CLR,,0.00,WeatherDisplay:10.37,2013-07-23 22:47:00,
2013-07-23 18:49:00,82.0,68.7,29.76,NNE,22,0.0,0.2,64,0.00,CLR,,0.00,WeatherDisplay:10.37,2013-07-23 22:49:00,
2013-07-23 18:50:00,82.0,68.7,29.76,NW,315,0.0,0.2,64,0.00,CLR,,0.00,WeatherDisplay:10.37,2013-07-23 22:50:00,
2013-07-23 18:52:00,82.0,68.7,29.76,NW,315,1.2,1.2,64,0.00,CLR,,0.00,WeatherDisplay:10.37,2013-07-23 22:52:00,
2013-07-23 18:54:00,82.0,68.7,29.76,SSW,202,0.0,0.2,64,0.00,CLR,,0.00,WeatherDisplay:10.37,2013-07-23 22:54:00,
2013-07-23 18:55:00,82.0,68.7,29.76,West,270,0.0,0.2,64,0.00,CLR,,0.00,WeatherDisplay:10.37,2013-07-23 22:55:00,
2013-07-23 18:57:00,82.0,68.7,29.76,North,0,2.3,2.3,64,0.00,CLR,,0.00,WeatherDisplay:10.37,2013-07-23 22:57:00,
2013-07-23 19:00:00,82.0,69.1,29.76,ENE,68,2.3,2.3,65,0.00,CLR,,0.00,WeatherDisplay:10.37,2013-07-23 23:00:00,
2013-07-23 19:01:00,82.0,69.1,29.77,East,90,0.0,0.3,65,0.00,CLR,,0.00,WeatherDisplay:10.37,2013-07-23 23:01:00,
2013-07-23 19:05:00,81.9,68.9,29.77,SE,135,1.2,1.2,65,0.00,CLR,,0.00,WeatherDisplay:10.37,2013-07-23 23:05:00,
2013-07-23 19:06:00,82.0,69.1,29.77,NNW,338,1.2,1.2,65,0.00,CLR,,0.00,WeatherDisplay:10.37,2013-07-23 23:06:00,
2013-07-23 19:07:00,82.0,69.1,29.77,NNW,338,1.2,1.2,65,0.00,CLR,,0.00,WeatherDisplay:10.37,2013-07-23 23:07:00,
2013-07-23 19:10:00,81.7,68.8,29.77,ENE,68,1.0,1.0,65,0.00,CLR,,0.00,WeatherDisplay:10.37,2013-07-23 23:10:00,
2013-07-23 19:12:00,81.7,68.8,29.77,ENE,68,1.2,1.2,65,0.00,CLR,,0.00,WeatherDisplay:10.37,2013-07-23 23:12:00,
2013-07-23 19:18:00,81.5,68.6,29.77,WSW,248,0.0,0.5,65,0.00,CLR,,0.00,WeatherDisplay:10.37,2013-07-23 23:18:00,
2013-07-23 19:22:00,81.3,68.4,29.76,SSE,158,0.0,0.2,65,0.00,CLR,,0.00,WeatherDisplay:10.37,2013-07-23 23:22:00,
2013-07-23 19:23:00,81.3,68.4,29.76,SSE,158,1.6,1.6,65,0.00,CLR,,0.00,WeatherDisplay:10.37,2013-07-23 23:23:00,
2013-07-23 19:24:00,81.1,68.3,29.76,WSW,248,1.2,1.2,65,0.00,CLR,,0.00,WeatherDisplay:10.37,2013-07-23 23:24:00,
2013-07-23 19:27:00,81.1,68.7,29.76,SSE,158,0.0,0.2,66,0.00,CLR,,0.00,WeatherDisplay:10.37,2013-07-23 23:27:00,
2013-07-23 19:28:00,81.1,68.7,29.76,ESE,112,0.0,0.2,66,0.00,CLR,,0.00,WeatherDisplay:10.37,2013-07-23 23:28:00,
2013-07-23 19:29:00,81.1,68.7,29.76,ESE,112,0.0,0.2,66,0.00,CLR,,0.00,WeatherDisplay:10.37,2013-07-23 23:29:00,
2013-07-23 19:30:00,81.1,68.7,29.76,ESE,112,0.0,0.2,66,0.00,CLR,,0.00,WeatherDisplay:10.37,2013-07-23 23:30:00,
2013-07-23 19:34:00,81.1,68.7,29.76,NE,45,2.3,2.3,66,0.00,CLR,,0.00,WeatherDisplay:10.37,2013-07-23 23:34:00,
2013-07-23 19:35:00,81.0,68.5,29.76,SW,225,2.3,2.3,66,0.00,CLR,,0.00,WeatherDisplay:10.37,2013-07-23 23:35:00,
2013-07-23 19:36:00,81.0,68.5,29.76,SW,225,0.0,0.2,66,0.00,CLR,,0.00,WeatherDisplay:10.37,2013-07-23 23:36:00,
2013-07-23 19:39:00,81.0,68.5,29.76,West,270,1.4,1.4,66,0.00,CLR,,0.00,WeatherDisplay:10.37,2013-07-23 23:39:00,
2013-07-23 19:40:00,80.8,68.4,29.77,SW,225,1.2,1.2,66,0.00,CLR,,0.00,WeatherDisplay:10.37,2013-07-23 23:40:00,
2013-07-23 19:43:00,80.8,68.4,29.77,SW,225,1.2,1.2,66,0.00,CLR,,0.00,WeatherDisplay:10.37,2013-07-23 23:43:00,
2013-07-23 19:44:00,80.8,68.4,29.77,SW,225,1.2,1.2,66,0.00,CLR,,0.00,WeatherDisplay:10.37,2013-07-23 23:44:00,
2013-07-23 19:45:00,80.8,68.4,29.77,SW,225,1.2,1.2,66,0.00,CLR,,0.00,WeatherDisplay:10.37,2013-07-23 23:45:00,
2013-07-23 19:46:00,80.8,68.4,29.77,SW,225,1.2,1.2,66,0.00,CLR,,0.00,WeatherDisplay:10.37,2013-07-23 23:46:00,
2013-07-23 19:49:00,80.8,68.4,29.77,SW,225,1.2,1.2,66,0.00,CLR,,0.00,WeatherDisplay:10.37,2013-07-23 23:49:00,
2013-07-23 19:51:00,80.8,68.4,29.77,West,270,1.2,1.2,66,0.00,CLR,,0.00,WeatherDisplay:10.37,2013-07-23 23:51:00,
2013-07-23 19:52:00,80.8,68.4,29.77,West,270,1.2,1.2,66,0.00,CLR,,0.00,WeatherDisplay:10.37,2013-07-23 23:52:00,
2013-07-23 19:55:00,80.6,68.2,29.77,ESE,112,0.0,0.3,66,0.00,CLR,,0.00,WeatherDisplay:10.37,2013-07-23 23:55:00,
2013-07-23 19:57:00,80.6,68.2,29.77,ESE,112,0.0,0.2,66,0.00,CLR,,0.00,WeatherDisplay:10.37,2013-07-23 23:57:00,
2013-07-23 19:58:00,80.4,68.5,29.77,ENE,68,0.0,0.0,67,0.00,CLR,,0.00,WeatherDisplay:10.37,2013-07-23 23:58:00,
2013-07-23 20:00:00,80.4,68.5,29.77,ENE,68,0.0,0.0,67,0.00,CLR,,0.00,WeatherDisplay:10.37,2013-07-24 00:00:00,
2013-07-23 20:02:00,80.4,68.5,29.77,ENE,68,0.0,0.1,67,0.00,CLR,,0.00,WeatherDisplay:10.37,2013-07-24 00:02:00,
2013-07-23 20:04:00,80.4,68.5,29.77,ENE,68,0.0,0.1,67,0.00,CLR,,0.00,WeatherDisplay:10.37,2013-07-24 00:04:00,
2013-07-23 20:06:00,80.1,67.7,29.77,SE,135,0.0,0.1,66,0.00,CLR,,0.00,WeatherDisplay:10.37,2013-07-24 00:06:00,
2013-07-23 20:08:00,80.1,68.1,29.77,SW,225,0.0,0.1,67,0.00,CLR,,0.00,WeatherDisplay:10.37,2013-07-24 00:08:00,
2013-07-23 20:11:00,80.1,68.1,29.77,WNW,292,0.0,0.1,67,0.00,CLR,,0.00,WeatherDisplay:10.37,2013-07-24 00:11:00,
2013-07-23 20:14:00,80.2,68.3,29.77,NNE,22,0.0,0.1,67,0.00,CLR,,0.00,WeatherDisplay:10.37,2013-07-24 00:14:00,
2013-07-23 20:16:00,80.2,68.3,29.77,WSW,248,0.0,0.1,67,0.00,CLR,,0.00,WeatherDisplay:10.37,2013-07-24 00:16:00,
2013-07-23 20:18:00,80.2,68.3,29.77,NW,315,0.0,0.1,67,0.00,CLR,,0.00,WeatherDisplay:10.37,2013-07-24 00:18:00,
2013-07-23 20:19:00,80.2,68.3,29.77,WSW,248,0.0,0.1,67,0.00,CLR,,0.00,WeatherDisplay:10.37,2013-07-24 00:19:00,
2013-07-23 20:21:00,80.2,68.7,29.79,ESE,112,0.0,0.0,68,0.00,CLR,,0.00,WeatherDisplay:10.37,2013-07-24 00:21:00,
2013-07-23 20:23:00,80.1,68.5,29.79,ESE,112,0.0,0.0,68,0.00,CLR,,0.00,WeatherDisplay:10.37,2013-07-24 00:23:00,
2013-07-23 20:25:00,80.1,68.5,29.79,ENE,68,0.0,0.1,68,0.00,CLR,,0.00,WeatherDisplay:10.37,2013-07-24 00:25:00,
2013-07-23 20:27:00,79.9,67.9,29.79,ENE,68,0.0,0.1,67,0.00,CLR,,0.00,WeatherDisplay:10.37,2013-07-24 00:27:00,
2013-07-23 20:30:00,79.9,68.4,29.79,SW,225,0.0,0.1,68,0.00,CLR,,0.00,WeatherDisplay:10.37,2013-07-24 00:30:00,
2013-07-23 20:32:00,79.9,68.4,29.79,SW,225,0.0,0.1,68,0.00,CLR,,0.00,WeatherDisplay:10.37,2013-07-24 00:32:00,
2013-07-23 20:36:00,79.9,68.4,29.79,SW,225,0.0,0.0,68,0.00,CLR,,0.00,WeatherDisplay:10.37,2013-07-24 00:36:00,
2013-07-23 20:37:00,79.9,68.4,29.79,SW,225,0.0,0.0,68,0.00,CLR,,0.00,WeatherDisplay:10.37,2013-07-24 00:37:00,
2013-07-23 20:38:00,79.9,68.4,29.79,SW,225,0.0,0.0,68,0.00,CLR,,0.00,WeatherDisplay:10.37,2013-07-24 00:38:00,
2013-07-23 20:42:00,79.9,68.8,29.79,SW,225,0.0,0.0,69,0.00,CLR,,0.00,WeatherDisplay:10.37,2013-07-24 00:42:00,
2013-07-23 20:43:00,79.9,68.8,29.79,SW,225,0.0,0.0,69,0.00,CLR,,0.00,WeatherDisplay:10.37,2013-07-24 00:43:00,
2013-07-23 20:48:00,79.7,68.6,29.79,SW,225,0.0,0.0,69,0.00,CLR,,0.00,WeatherDisplay:10.37,2013-07-24 00:48:00,
2013-07-23 20:49:00,79.7,68.6,29.79,SW,225,0.0,0.0,69,0.00,CLR,,0.00,WeatherDisplay:10.37,2013-07-24 00:49:00,
2013-07-23 20:54:00,79.7,68.6,29.79,SW,225,0.0,0.0,69,0.00,CLR,,0.00,WeatherDisplay:10.37,2013-07-24 00:54:00,
2013-07-23 20:55:00,79.7,68.6,29.79,SW,225,0.0,0.0,69,0.00,CLR,,0.00,WeatherDisplay:10.37,2013-07-24 00:55:00,
2013-07-23 20:56:00,79.7,68.6,29.79,SW,225,0.0,0.0,69,0.00,CLR,,0.00,WeatherDisplay:10.37,2013-07-24 00:56:00,
2013-07-23 20:57:00,79.7,68.6,29.79,ENE,68,0.0,0.0,69,0.00,CLR,,0.00,WeatherDisplay:10.37,2013-07-24 00:57:00,
2013-07-23 21:00:00,79.5,68.5,29.80,East,90,0.0,0.0,69,0.00,CLR,,0.00,WeatherDisplay:10.37,2013-07-24 01:00:00,
2013-07-23 21:01:00,79.5,68.5,29.80,East,90,0.0,0.0,69,0.00,CLR,,0.00,WeatherDisplay:10.37,2013-07-24 01:01:00,
2013-07-23 21:02:00,79.3,68.3,29.80,SE,135,0.0,0.0,69,0.00,CLR,,0.00,WeatherDisplay:10.37,2013-07-24 01:02:00,
2013-07-23 21:06:00,79.3,68.3,29.80,West,270,0.0,0.0,69,0.00,CLR,,0.00,WeatherDisplay:10.37,2013-07-24 01:06:00,
2013-07-23 21:07:00,79.3,68.3,29.80,WSW,248,0.0,0.0,69,0.00,CLR,,0.00,WeatherDisplay:10.37,2013-07-24 01:07:00,
2013-07-23 21:11:00,79.0,67.9,29.80,West,270,1.2,1.2,69,0.00,CLR,,0.00,WeatherDisplay:10.37,2013-07-24 01:11:00,
2013-07-23 21:12:00,79.0,67.9,29.80,West,270,1.2,1.2,69,0.00,CLR,,0.00,WeatherDisplay:10.37,2013-07-24 01:12:00,
2013-07-23 21:16:00,79.0,67.9,29.80,SE,135,1.2,1.2,69,0.00,CLR,,0.00,WeatherDisplay:10.37,2013-07-24 01:16:00,
2013-07-23 21:17:00,79.0,67.9,29.80,SE,135,0.0,0.3,69,0.00,CLR,,0.00,WeatherDisplay:10.37,2013-07-24 01:17:00,
2013-07-23 21:18:00,79.0,67.9,29.80,SE,135,0.0,0.3,69,0.00,CLR,,0.00,WeatherDisplay:10.37,2013-07-24 01:18:00,
2013-07-23 21:21:00,79.0,67.9,29.79,NE,45,0.0,0.1,69,0.00,CLR,,0.00,WeatherDisplay:10.37,2013-07-24 01:21:00,
2013-07-23 21:23:00,79.0,68.4,29.79,NE,45,0.0,0.1,70,0.00,CLR,,0.00,WeatherDisplay:10.37,2013-07-24 01:23:00,
2013-07-23 21:27:00,78.8,68.2,29.79,SW,225,0.0,0.0,70,0.00,CLR,,0.00,WeatherDisplay:10.37,2013-07-24 01:27:00,
2013-07-23 21:28:00,78.8,68.2,29.79,SW,225,0.0,0.0,70,0.00,CLR,,0.00,WeatherDisplay:10.37,2013-07-24 01:28:00,
2013-07-23 21:32:00,78.8,68.2,29.79,WNW,292,3.5,3.5,70,0.00,CLR,,0.00,WeatherDisplay:10.37,2013-07-24 01:32:00,
2013-07-23 21:33:00,78.6,68.0,29.79,West,270,3.5,3.5,70,0.00,CLR,,0.00,WeatherDisplay:10.37,2013-07-24 01:33:00,
2013-07-23 21:34:00,78.6,68.0,29.79,WSW,248,1.7,1.7,70,0.00,CLR,,0.00,WeatherDisplay:10.37,2013-07-24 01:34:00,
2013-07-23 21:35:00,78.6,68.0,29.79,WSW,248,2.3,2.3,70,0.00,CLR,,0.00,WeatherDisplay:10.37,2013-07-24 01:35:00,
2013-07-23 21:37:00,78.6,68.0,29.79,SSW,202,2.3,2.3,70,0.00,CLR,,0.00,WeatherDisplay:10.37,2013-07-24 01:37:00,
2013-07-23 21:39:00,78.6,68.0,29.79,WSW,248,1.2,1.2,70,0.00,CLR,,0.00,WeatherDisplay:10.37,2013-07-24 01:39:00,
2013-07-23 21:40:00,78.6,68.0,29.79,WNW,292,0.0,0.5,70,0.00,CLR,,0.00,WeatherDisplay:10.37,2013-07-24 01:40:00,
2013-07-23 21:42:00,78.4,67.8,29.79,SSE,158,0.0,0.3,70,0.00,CLR,,0.00,WeatherDisplay:10.37,2013-07-24 01:42:00,
2013-07-23 21:45:00,78.4,68.3,29.79,WSW,248,0.0,0.3,71,0.00,CLR,,0.00,WeatherDisplay:10.37,2013-07-24 01:45:00,
2013-07-23 21:47:00,78.4,68.3,29.79,WSW,248,2.3,2.3,71,0.00,CLR,,0.00,WeatherDisplay:10.37,2013-07-24 01:47:00,
2013-07-23 21:49:00,78.4,68.3,29.79,SW,225,1.2,1.2,71,0.00,CLR,,0.00,WeatherDisplay:10.37,2013-07-24 01:49:00,
2013-07-23 21:50:00,78.3,68.1,29.79,NW,315,0.0,0.2,71,0.00,CLR,,0.00,WeatherDisplay:10.37,2013-07-24 01:50:00,
2013-07-23 21:53:00,78.4,68.3,29.79,NW,315,0.0,0.2,71,0.00,CLR,,0.00,WeatherDisplay:10.37,2013-07-24 01:53:00,
2013-07-23 21:56:00,78.3,68.1,29.79,West,270,0.0,0.2,71,0.00,CLR,,0.00,WeatherDisplay:10.37,2013-07-24 01:56:00,
2013-07-23 21:57:00,78.3,68.1,29.79,NNW,338,0.0,0.1,71,0.00,CLR,,0.00,WeatherDisplay:10.37,2013-07-24 01:57:00,
2013-07-23 22:00:00,78.3,68.1,29.79,West,270,0.0,0.1,71,0.00,CLR,,0.00,WeatherDisplay:10.37,2013-07-24 02:00:00,
2013-07-23 22:01:00,78.3,68.1,29.79,West,270,0.0,0.1,71,0.00,CLR,,0.00,WeatherDisplay:10.37,2013-07-24 02:01:00,
2013-07-23 22:03:00,78.3,68.1,29.79,ENE,68,0.0,0.1,71,0.00,CLR,,0.00,WeatherDisplay:10.37,2013-07-24 02:03:00,
2013-07-23 22:05:00,78.3,68.1,29.79,WSW,248,0.0,0.0,71,0.00,CLR,,0.00,WeatherDisplay:10.37,2013-07-24 02:05:00,
2013-07-23 22:06:00,78.3,68.1,29.79,WSW,248,0.0,0.0,71,0.00,CLR,,0.00,WeatherDisplay:10.37,2013-07-24 02:06:00,
2013-07-23 22:07:00,78.3,68.1,29.79,WSW,248,0.0,0.0,71,0.00,CLR,,0.00,WeatherDisplay:10.37,2013-07-24 02:07:00,
2013-07-23 22:08:00,78.3,68.1,29.79,WSW,248,0.0,0.0,71,0.00,CLR,,0.00,WeatherDisplay:10.37,2013-07-24 02:08:00,
2013-07-23 22:12:00,78.1,67.9,29.79,SW,225,0.0,0.1,71,0.00,CLR,,0.00,WeatherDisplay:10.37,2013-07-24 02:12:00,
2013-07-23 22:15:00,78.1,67.9,29.79,SW,225,0.0,0.1,71,0.00,CLR,,0.00,WeatherDisplay:10.37,2013-07-24 02:15:00,
2013-07-23 22:17:00,78.1,67.9,29.79,NNE,22,0.0,0.1,71,0.00,CLR,,0.00,WeatherDisplay:10.37,2013-07-24 02:17:00,
2013-07-23 22:20:00,77.9,67.7,29.79,West,270,1.5,1.5,71,0.00,CLR,,0.00,WeatherDisplay:10.37,2013-07-24 02:20:00,
2013-07-23 22:23:00,77.9,68.1,29.80,SW,225,1.2,1.2,72,0.00,CLR,,0.00,WeatherDisplay:10.37,2013-07-24 02:23:00,
2013-07-23 22:26:00,77.7,68.0,29.80,NW,315,0.0,0.2,72,0.00,CLR,,0.00,WeatherDisplay:10.37,2013-07-24 02:26:00,
2013-07-23 22:28:00,77.9,68.1,29.80,West,270,0.0,0.2,72,0.00,CLR,,0.00,WeatherDisplay:10.37,2013-07-24 02:28:00,
2013-07-23 22:29:00,77.9,68.1,29.80,WSW,248,0.0,0.2,72,0.00,CLR,,0.00,WeatherDisplay:10.37,2013-07-24 02:29:00,
2013-07-23 22:33:00,77.7,68.0,29.80,West,270,0.0,0.1,72,0.00,CLR,,0.00,WeatherDisplay:10.37,2013-07-24 02:33:00,
2013-07-23 22:34:00,77.7,68.0,29.80,SW,225,0.0,0.1,72,0.00,CLR,,0.00,WeatherDisplay:10.37,2013-07-24 02:34:00,
2013-07-23 22:36:00,77.7,68.0,29.80,SW,225,0.0,0.1,72,0.00,CLR,,0.00,WeatherDisplay:10.37,2013-07-24 02:36:00,
2013-07-23 22:38:00,77.7,68.0,29.80,North,0,0.0,0.1,72,0.00,CLR,,0.00,WeatherDisplay:10.37,2013-07-24 02:38:00,
2013-07-23 22:39:00,77.7,68.0,29.80,North,0,0.0,0.1,72,0.00,CLR,,0.00,WeatherDisplay:10.37,2013-07-24 02:39:00,
2013-07-23 22:41:00,77.5,67.8,29.80,ENE,68,0.0,0.1,72,0.00,CLR,,0.00,WeatherDisplay:10.37,2013-07-24 02:41:00,
2013-07-23 22:44:00,77.5,67.8,29.80,ENE,68,0.0,0.1,72,0.00,CLR,,0.00,WeatherDisplay:10.37,2013-07-24 02:44:00,
2013-07-23 22:45:00,77.5,67.8,29.80,NW,315,0.0,0.1,72,0.00,CLR,,0.00,WeatherDisplay:10.37,2013-07-24 02:45:00,
2013-07-23 22:47:00,77.5,67.8,29.80,NNE,22,0.0,0.0,72,0.00,CLR,,0.00,WeatherDisplay:10.37,2013-07-24 02:47:00,
2013-07-23 22:49:00,77.5,67.8,29.80,ESE,112,0.0,0.0,72,0.00,CLR,,0.00,WeatherDisplay:10.37,2013-07-24 02:49:00,
2013-07-23 22:50:00,77.2,67.5,29.80,NNE,22,0.0,0.1,72,0.00,CLR,,0.00,WeatherDisplay:10.37,2013-07-24 02:50:00,
2013-07-23 22:52:00,77.4,67.6,29.80,NNW,338,0.0,0.1,72,0.00,CLR,,0.00,WeatherDisplay:10.37,2013-07-24 02:52:00,
2013-07-23 22:54:00,77.4,67.6,29.80,West,270,0.0,0.1,72,0.00,CLR,,0.00,WeatherDisplay:10.37,2013-07-24 02:54:00,
2013-07-23 22:56:00,77.4,67.6,29.80,West,270,0.0,0.1,72,0.00,CLR,,0.00,WeatherDisplay:10.37,2013-07-24 02:56:00,
2013-07-23 22:58:00,77.4,67.6,29.80,West,270,0.0,0.1,72,0.00,CLR,,0.00,WeatherDisplay:10.37,2013-07-24 02:58:00,
2013-07-23 22:59:00,77.2,67.9,29.80,ENE,68,1.4,1.4,73,0.00,CLR,,0.00,WeatherDisplay:10.37,2013-07-24 02:59:00,
2013-07-23 23:01:00,77.2,67.9,29.81,SE,135,1.2,1.2,73,0.00,CLR,,0.00,WeatherDisplay:10.37,2013-07-24 03:01:00,
2013-07-23 23:02:00,77.2,67.9,29.81,SE,135,0.0,0.1,73,0.00,CLR,,0.00,WeatherDisplay:10.37,2013-07-24 03:02:00,
2013-07-23 23:03:00,77.2,67.9,29.81,WNW,292,2.3,2.3,73,0.00,CLR,,0.00,WeatherDisplay:10.37,2013-07-24 03:03:00,
2013-07-23 23:04:00,77.2,67.9,29.81,ENE,68,2.3,2.3,73,0.00,CLR,,0.00,WeatherDisplay:10.37,2013-07-24 03:04:00,
2013-07-23 23:06:00,77.2,67.9,29.81,SW,225,0.0,0.3,73,0.00,CLR,,0.00,WeatherDisplay:10.37,2013-07-24 03:06:00,
2013-07-23 23:08:00,77.2,67.9,29.81,SW,225,1.2,1.2,73,0.00,CLR,,0.00,WeatherDisplay:10.37,2013-07-24 03:08:00,
2013-07-23 23:11:00,77.2,67.9,29.81,SW,225,0.0,0.3,73,0.00,CLR,,0.00,WeatherDisplay:10.37,2013-07-24 03:11:00,
2013-07-23 23:12:00,77.2,67.9,29.81,WSW,248,0.0,0.3,73,0.00,CLR,,0.00,WeatherDisplay:10.37,2013-07-24 03:12:00,
2013-07-23 23:13:00,77.2,67.9,29.81,WSW,248,0.0,0.3,73,0.00,CLR,,0.00,WeatherDisplay:10.37,2013-07-24 03:13:00,
2013-07-23 23:14:00,77.2,67.9,29.81,WSW,248,0.0,0.3,73,0.00,CLR,,0.00,WeatherDisplay:10.37,2013-07-24 03:14:00,
2013-07-23 23:17:00,77.0,67.7,29.81,ENE,68,0.0,0.2,73,0.00,CLR,,0.00,WeatherDisplay:10.37,2013-07-24 03:17:00,
2013-07-23 23:18:00,77.0,67.7,29.81,SW,225,2.0,2.0,73,0.00,CLR,,0.00,WeatherDisplay:10.37,2013-07-24 03:18:00,
2013-07-23 23:19:00,77.0,67.7,29.81,SW,225,2.3,2.3,73,0.00,CLR,,0.00,WeatherDisplay:10.37,2013-07-24 03:19:00,
2013-07-23 23:22:00,76.8,67.5,29.81,WNW,292,1.2,1.2,73,0.00,CLR,,0.00,WeatherDisplay:10.37,2013-07-24 03:22:00,
2013-07-23 23:23:00,76.8,67.5,29.81,WNW,292,2.3,2.3,73,0.00,CLR,,0.00,WeatherDisplay:10.37,2013-07-24 03:23:00,
2013-07-23 23:26:00,76.8,67.9,29.81,WNW,292,2.3,2.3,74,0.00,CLR,,0.00,WeatherDisplay:10.37,2013-07-24 03:26:00,
2013-07-23 23:28:00,76.8,67.9,29.81,WNW,292,2.4,2.4,74,0.00,CLR,,0.00,WeatherDisplay:10.37,2013-07-24 03:28:00,
2013-07-23 23:32:00,76.8,67.9,29.81,NW,315,0.0,0.8,74,0.00,CLR,,0.00,WeatherDisplay:10.37,2013-07-24 03:32:00,
2013-07-23 23:33:00,76.6,67.7,29.81,WNW,292,0.0,0.7,74,0.00,CLR,,0.00,WeatherDisplay:10.37,2013-07-24 03:33:00,
2013-07-23 23:34:00,76.6,67.7,29.81,SW,225,0.0,0.3,74,0.00,CLR,,0.00,WeatherDisplay:10.37,2013-07-24 03:34:00,
2013-07-23 23:36:00,76.6,67.7,29.81,NNW,338,3.2,3.2,74,0.00,CLR,,0.00,WeatherDisplay:10.37,2013-07-24 03:36:00,
2013-07-23 23:38:00,76.6,67.7,29.81,NNW,338,3.5,3.5,74,0.00,CLR,,0.00,WeatherDisplay:10.37,2013-07-24 03:38:00,
2013-07-23 23:40:00,76.6,67.7,29.81,West,270,0.0,0.3,74,0.00,CLR,,0.00,WeatherDisplay:10.37,2013-07-24 03:40:00,
2013-07-23 23:42:00,76.5,67.6,29.81,SW,225,0.0,0.3,74,0.00,CLR,,0.00,WeatherDisplay:10.37,2013-07-24 03:42:00,
2013-07-23 23:43:00,76.5,67.6,29.81,ESE,112,0.0,0.3,74,0.00,CLR,,0.00,WeatherDisplay:10.37,2013-07-24 03:43:00,
2013-07-23 23:46:00,76.5,67.6,29.81,West,270,0.0,0.3,74,0.00,CLR,,0.00,WeatherDisplay:10.37,2013-07-24 03:46:00,
2013-07-23 23:48:00,76.5,67.6,29.81,West,270,0.0,0.3,74,0.00,CLR,,0.00,WeatherDisplay:10.37,2013-07-24 03:48:00,
2013-07-23 23:54:00,76.3,67.4,29.81,West,270,0.0,0.3,74,0.00,CLR,,0.00,WeatherDisplay:10.37,2013-07-24 03:54:00,
2013-07-23 23:55:00,76.3,67.4,29.81,South,180,1.6,1.6,74,0.00,CLR,,0.00,WeatherDisplay:10.37,2013-07-24 03:55:00,
2013-07-23 23:59:00,76.1,67.6,29.81,ESE,112,2.8,2.8,75,0.00,CLR,,0.00,WeatherDisplay:10.37,2013-07-24 03:59:00,